<?xml version="1.0" encoding="UTF-8" standalone="no" ?><gpx xmlns="http://www.topografix.com/GPX/1/1" xmlns:gpxx="http://www.garmin.com/xmlschemas/GpxExtensions/v3" xmlns:wptx1="http://www.garmin.com/xmlschemas/WaypointExtension/v1" xmlns:gpxtpx="http://www.garmin.com/xmlschemas/TrackPointExtension/v1" creator="GuideVTT.com" version="1.1" xmlns:xsi="http://www.w3.org/2001/XMLSchema-instance" xsi:schemaLocation="http://www.topografix.com/GPX/1/1 http://www.topografix.com/GPX/1/1/gpx.xsd http://www.garmin.com/xmlschemas/GpxExtensions/v3 http://www8.garmin.com/xmlschemas/GpxExtensionsv3.xsd http://www.garmin.com/xmlschemas/WaypointExtension/v1 http://www8.garmin.com/xmlschemas/WaypointExtensionv1.xsd http://www.garmin.com/xmlschemas/TrackPointExtension/v1 http://www.garmin.com/xmlschemas/TrackPointExtensionv1.xsd">
<metadata><link href="http://www.garmin.com"><text>Garmin International</text></link><time>2013-06-22T15:13:50Z</time></metadata>
<trk><name>heremence_altitudes.gpx</name><extensions><gpxx:TrackExtension><gpxx:DisplayColor>Cyan</gpxx:DisplayColor></gpxx:TrackExtension></extensions><trkseg>
<trkpt lat="46.180466" lon="7.404863"><ele></ele><time>2014-6-19T4:6:58Z</time></trkpt>
<trkpt lat="46.179980" lon="7.404746"><ele></ele><time>2014-6-19T4:7:1Z</time></trkpt>
<trkpt lat="46.179846" lon="7.404928"><ele></ele><time>2014-6-19T4:7:4Z</time></trkpt>
<trkpt lat="46.179009" lon="7.404475"><ele></ele><time>2014-6-19T4:7:7Z</time></trkpt>
<trkpt lat="46.178343" lon="7.404281"><ele></ele><time>2014-6-19T4:7:10Z</time></trkpt>
<trkpt lat="46.177434" lon="7.404075"><ele></ele><time>2014-6-19T4:7:13Z</time></trkpt>
<trkpt lat="46.176922" lon="7.403803"><ele></ele><time>2014-6-19T4:7:16Z</time></trkpt>
<trkpt lat="46.176319" lon="7.403454"><ele></ele><time>2014-6-19T4:7:19Z</time></trkpt>
<trkpt lat="46.175887" lon="7.403143"><ele></ele><time>2014-6-19T4:7:22Z</time></trkpt>
<trkpt lat="46.175473" lon="7.403415"><ele></ele><time>2014-6-19T4:7:25Z</time></trkpt>
<trkpt lat="46.175311" lon="7.403454"><ele></ele><time>2014-6-19T4:7:28Z</time></trkpt>
<trkpt lat="46.175230" lon="7.402911"><ele></ele><time>2014-6-19T4:7:31Z</time></trkpt>
<trkpt lat="46.174978" lon="7.402354"><ele></ele><time>2014-6-19T4:7:34Z</time></trkpt>
<trkpt lat="46.174834" lon="7.402082"><ele></ele><time>2014-6-19T4:7:37Z</time></trkpt>
<trkpt lat="46.174402" lon="7.401513"><ele></ele><time>2014-6-19T4:7:40Z</time></trkpt>
<trkpt lat="46.174195" lon="7.401396"><ele></ele><time>2014-6-19T4:7:43Z</time></trkpt>
<trkpt lat="46.173997" lon="7.400516"><ele></ele><time>2014-6-19T4:7:46Z</time></trkpt>
<trkpt lat="46.173646" lon="7.400361"><ele></ele><time>2014-6-19T4:7:49Z</time></trkpt>
<trkpt lat="46.173376" lon="7.400335"><ele></ele><time>2014-6-19T4:7:52Z</time></trkpt>
<trkpt lat="46.173107" lon="7.400750"><ele></ele><time>2014-6-19T4:7:55Z</time></trkpt>
<trkpt lat="46.172981" lon="7.401009"><ele></ele><time>2014-6-19T4:7:58Z</time></trkpt>
<trkpt lat="46.172324" lon="7.401333"><ele></ele><time>2014-6-19T4:8:1Z</time></trkpt>
<trkpt lat="46.171982" lon="7.401359"><ele></ele><time>2014-6-19T4:8:4Z</time></trkpt>
<trkpt lat="46.171667" lon="7.401165"><ele></ele><time>2014-6-19T4:8:7Z</time></trkpt>
<trkpt lat="46.171622" lon="7.400673"><ele></ele><time>2014-6-19T4:8:10Z</time></trkpt>
<trkpt lat="46.171352" lon="7.400246"><ele></ele><time>2014-6-19T4:8:13Z</time></trkpt>
<trkpt lat="46.170902" lon="7.400039"><ele></ele><time>2014-6-19T4:8:16Z</time></trkpt>
<trkpt lat="46.169994" lon="7.399198"><ele></ele><time>2014-6-19T4:8:19Z</time></trkpt>
<trkpt lat="46.169723" lon="7.398434"><ele></ele><time>2014-6-19T4:8:22Z</time></trkpt>
<trkpt lat="46.169409" lon="7.398409"><ele></ele><time>2014-6-19T4:8:25Z</time></trkpt>
<trkpt lat="46.169157" lon="7.398150"><ele></ele><time>2014-6-19T4:8:28Z</time></trkpt>
<trkpt lat="46.168923" lon="7.397982"><ele></ele><time>2014-6-19T4:8:31Z</time></trkpt>
<trkpt lat="46.168743" lon="7.397904"><ele></ele><time>2014-6-19T4:8:34Z</time></trkpt>
<trkpt lat="46.168680" lon="7.397632"><ele></ele><time>2014-6-19T4:8:37Z</time></trkpt>
<trkpt lat="46.168140" lon="7.397192"><ele></ele><time>2014-6-19T4:8:40Z</time></trkpt>
<trkpt lat="46.167870" lon="7.397154"><ele></ele><time>2014-6-19T4:8:43Z</time></trkpt>
<trkpt lat="46.167645" lon="7.396947"><ele></ele><time>2014-6-19T4:8:46Z</time></trkpt>
<trkpt lat="46.167249" lon="7.396960"><ele></ele><time>2014-6-19T4:8:49Z</time></trkpt>
<trkpt lat="46.166880" lon="7.396688"><ele></ele><time>2014-6-19T4:8:52Z</time></trkpt>
<trkpt lat="46.166241" lon="7.396534"><ele></ele><time>2014-6-19T4:8:55Z</time></trkpt>
<trkpt lat="46.167546" lon="7.396442"><ele></ele><time>2014-6-19T4:8:58Z</time></trkpt>
<trkpt lat="46.166430" lon="7.396210"><ele></ele><time>2014-6-19T4:9:1Z</time></trkpt>
<trkpt lat="46.165935" lon="7.396327"><ele></ele><time>2014-6-19T4:9:4Z</time></trkpt>
<trkpt lat="46.165378" lon="7.396327"><ele></ele><time>2014-6-19T4:9:7Z</time></trkpt>
<trkpt lat="46.165171" lon="7.396146"><ele></ele><time>2014-6-19T4:9:10Z</time></trkpt>
<trkpt lat="46.164640" lon="7.395266"><ele></ele><time>2014-6-19T4:9:13Z</time></trkpt>
<trkpt lat="46.164487" lon="7.394878"><ele></ele><time>2014-6-19T4:9:16Z</time></trkpt>
<trkpt lat="46.164289" lon="7.394736"><ele></ele><time>2014-6-19T4:9:19Z</time></trkpt>
<trkpt lat="46.164136" lon="7.394787"><ele></ele><time>2014-6-19T4:9:22Z</time></trkpt>
<trkpt lat="46.163956" lon="7.395085"><ele></ele><time>2014-6-19T4:9:25Z</time></trkpt>
<trkpt lat="46.163731" lon="7.395150"><ele></ele><time>2014-6-19T4:9:28Z</time></trkpt>
<trkpt lat="46.163488" lon="7.395474"><ele></ele><time>2014-6-19T4:9:31Z</time></trkpt>
<trkpt lat="46.163219" lon="7.395681"><ele></ele><time>2014-6-19T4:9:34Z</time></trkpt>
<trkpt lat="46.162679" lon="7.395708"><ele></ele><time>2014-6-19T4:9:37Z</time></trkpt>
<trkpt lat="46.162130" lon="7.395501"><ele></ele><time>2014-6-19T4:9:40Z</time></trkpt>
<trkpt lat="46.161986" lon="7.395449"><ele></ele><time>2014-6-19T4:9:43Z</time></trkpt>
<trkpt lat="46.161779" lon="7.395152"><ele></ele><time>2014-6-19T4:9:46Z</time></trkpt>
<trkpt lat="46.161356" lon="7.395049"><ele></ele><time>2014-6-19T4:9:49Z</time></trkpt>
<trkpt lat="46.160933" lon="7.394635"><ele></ele><time>2014-6-19T4:9:52Z</time></trkpt>
<trkpt lat="46.160411" lon="7.394014"><ele></ele><time>2014-6-19T4:9:55Z</time></trkpt>
<trkpt lat="46.159997" lon="7.393846"><ele></ele><time>2014-6-19T4:9:58Z</time></trkpt>
<trkpt lat="46.159422" lon="7.393846"><ele></ele><time>2014-6-19T4:10:1Z</time></trkpt>
<trkpt lat="46.159071" lon="7.393626"><ele></ele><time>2014-6-19T4:10:4Z</time></trkpt>
<trkpt lat="46.158828" lon="7.393329"><ele></ele><time>2014-6-19T4:10:7Z</time></trkpt>
<trkpt lat="46.158621" lon="7.393044"><ele></ele><time>2014-6-19T4:10:10Z</time></trkpt>
<trkpt lat="46.158801" lon="7.392953"><ele></ele><time>2014-6-19T4:10:13Z</time></trkpt>
<trkpt lat="46.159098" lon="7.393122"><ele></ele><time>2014-6-19T4:10:16Z</time></trkpt>
<trkpt lat="46.159422" lon="7.393341"><ele></ele><time>2014-6-19T4:10:19Z</time></trkpt>
<trkpt lat="46.159799" lon="7.393367"><ele></ele><time>2014-6-19T4:10:22Z</time></trkpt>
<trkpt lat="46.160015" lon="7.393328"><ele></ele><time>2014-6-19T4:10:25Z</time></trkpt>
<trkpt lat="46.159961" lon="7.393224"><ele></ele><time>2014-6-19T4:10:28Z</time></trkpt>
<trkpt lat="46.159727" lon="7.393212"><ele></ele><time>2014-6-19T4:10:31Z</time></trkpt>
<trkpt lat="46.159439" lon="7.393160"><ele></ele><time>2014-6-19T4:10:34Z</time></trkpt>
<trkpt lat="46.159116" lon="7.392914"><ele></ele><time>2014-6-19T4:10:37Z</time></trkpt>
<trkpt lat="46.158747" lon="7.392656"><ele></ele><time>2014-6-19T4:10:40Z</time></trkpt>
<trkpt lat="46.158351" lon="7.392591"><ele></ele><time>2014-6-19T4:10:43Z</time></trkpt>
<trkpt lat="46.158018" lon="7.392799"><ele></ele><time>2014-6-19T4:10:46Z</time></trkpt>
<trkpt lat="46.157793" lon="7.392812"><ele></ele><time>2014-6-19T4:10:49Z</time></trkpt>
<trkpt lat="46.155715" lon="7.391882"><ele></ele><time>2014-6-19T4:10:52Z</time></trkpt>
<trkpt lat="46.155346" lon="7.391740"><ele></ele><time>2014-6-19T4:10:55Z</time></trkpt>
<trkpt lat="46.155409" lon="7.391299"><ele></ele><time>2014-6-19T4:10:58Z</time></trkpt>
<trkpt lat="46.155930" lon="7.391286"><ele></ele><time>2014-6-19T4:11:1Z</time></trkpt>
<trkpt lat="46.156353" lon="7.391389"><ele></ele><time>2014-6-19T4:11:4Z</time></trkpt>
<trkpt lat="46.157397" lon="7.391712"><ele></ele><time>2014-6-19T4:11:7Z</time></trkpt>
<trkpt lat="46.158045" lon="7.391673"><ele></ele><time>2014-6-19T4:11:10Z</time></trkpt>
<trkpt lat="46.158413" lon="7.391206"><ele></ele><time>2014-6-19T4:11:13Z</time></trkpt>
<trkpt lat="46.158620" lon="7.390611"><ele></ele><time>2014-6-19T4:11:16Z</time></trkpt>
<trkpt lat="46.158556" lon="7.389653"><ele></ele><time>2014-6-19T4:11:19Z</time></trkpt>
<trkpt lat="46.158376" lon="7.388941"><ele></ele><time>2014-6-19T4:11:22Z</time></trkpt>
<trkpt lat="46.158601" lon="7.388293"><ele></ele><time>2014-6-19T4:11:25Z</time></trkpt>
<trkpt lat="46.158988" lon="7.388177"><ele></ele><time>2014-6-19T4:11:28Z</time></trkpt>
<trkpt lat="46.159113" lon="7.387930"><ele></ele><time>2014-6-19T4:11:31Z</time></trkpt>
<trkpt lat="46.158951" lon="7.387814"><ele></ele><time>2014-6-19T4:11:34Z</time></trkpt>
<trkpt lat="46.159095" lon="7.387555"><ele></ele><time>2014-6-19T4:11:37Z</time></trkpt>
<trkpt lat="46.159347" lon="7.387516"><ele></ele><time>2014-6-19T4:11:40Z</time></trkpt>
<trkpt lat="46.159401" lon="7.387309"><ele></ele><time>2014-6-19T4:11:43Z</time></trkpt>
<trkpt lat="46.159797" lon="7.387425"><ele></ele><time>2014-6-19T4:11:46Z</time></trkpt>
<trkpt lat="46.160166" lon="7.387813"><ele></ele><time>2014-6-19T4:11:49Z</time></trkpt>
<trkpt lat="46.160481" lon="7.388279"><ele></ele><time>2014-6-19T4:11:52Z</time></trkpt>
<trkpt lat="46.160850" lon="7.388563"><ele></ele><time>2014-6-19T4:11:55Z</time></trkpt>
<trkpt lat="46.161219" lon="7.389003"><ele></ele><time>2014-6-19T4:11:58Z</time></trkpt>
<trkpt lat="46.161345" lon="7.389145"><ele></ele><time>2014-6-19T4:12:1Z</time></trkpt>
<trkpt lat="46.161363" lon="7.388705"><ele></ele><time>2014-6-19T4:12:4Z</time></trkpt>
<trkpt lat="46.161237" lon="7.388317"><ele></ele><time>2014-6-19T4:12:7Z</time></trkpt>
<trkpt lat="46.161011" lon="7.387903"><ele></ele><time>2014-6-19T4:12:10Z</time></trkpt>
<trkpt lat="46.160885" lon="7.387463"><ele></ele><time>2014-6-19T4:12:13Z</time></trkpt>
<trkpt lat="46.160885" lon="7.387230"><ele></ele><time>2014-6-19T4:12:16Z</time></trkpt>
<trkpt lat="46.161416" lon="7.387669"><ele></ele><time>2014-6-19T4:12:19Z</time></trkpt>
<trkpt lat="46.161857" lon="7.388031"><ele></ele><time>2014-6-19T4:12:22Z</time></trkpt>
<trkpt lat="46.162532" lon="7.388264"><ele></ele><time>2014-6-19T4:12:25Z</time></trkpt>
<trkpt lat="46.163099" lon="7.388250"><ele></ele><time>2014-6-19T4:12:28Z</time></trkpt>
<trkpt lat="46.162622" lon="7.387837"><ele></ele><time>2014-6-19T4:12:31Z</time></trkpt>
<trkpt lat="46.162289" lon="7.387397"><ele></ele><time>2014-6-19T4:12:34Z</time></trkpt>
<trkpt lat="46.161955" lon="7.386659"><ele></ele><time>2014-6-19T4:12:37Z</time></trkpt>
<trkpt lat="46.161766" lon="7.386167"><ele></ele><time>2014-6-19T4:12:40Z</time></trkpt>
<trkpt lat="46.161307" lon="7.385831"><ele></ele><time>2014-6-19T4:12:43Z</time></trkpt>
<trkpt lat="46.160768" lon="7.385612"><ele></ele><time>2014-6-19T4:12:46Z</time></trkpt>
<trkpt lat="46.160498" lon="7.385534"><ele></ele><time>2014-6-19T4:12:49Z</time></trkpt>
<trkpt lat="46.159967" lon="7.385470"><ele></ele><time>2014-6-19T4:12:52Z</time></trkpt>
<trkpt lat="46.159634" lon="7.385742"><ele></ele><time>2014-6-19T4:12:55Z</time></trkpt>
<trkpt lat="46.159112" lon="7.385769"><ele></ele><time>2014-6-19T4:12:58Z</time></trkpt>
<trkpt lat="46.158771" lon="7.385588"><ele></ele><time>2014-6-19T4:13:1Z</time></trkpt>
<trkpt lat="46.158599" lon="7.385083"><ele></ele><time>2014-6-19T4:13:4Z</time></trkpt>
<trkpt lat="46.158086" lon="7.384255"><ele></ele><time>2014-6-19T4:13:7Z</time></trkpt>
<trkpt lat="46.157646" lon="7.384592"><ele></ele><time>2014-6-19T4:13:10Z</time></trkpt>
<trkpt lat="46.157223" lon="7.384800"><ele></ele><time>2014-6-19T4:13:13Z</time></trkpt>
<trkpt lat="46.156989" lon="7.385745"><ele></ele><time>2014-6-19T4:13:16Z</time></trkpt>
<trkpt lat="46.156701" lon="7.385305"><ele></ele><time>2014-6-19T4:13:19Z</time></trkpt>
<trkpt lat="46.155631" lon="7.385008"><ele></ele><time>2014-6-19T4:13:22Z</time></trkpt>
<trkpt lat="46.155316" lon="7.385125"><ele></ele><time>2014-6-19T4:13:25Z</time></trkpt>
<trkpt lat="46.154344" lon="7.384893"><ele></ele><time>2014-6-19T4:13:28Z</time></trkpt>
<trkpt lat="46.153589" lon="7.384946"><ele></ele><time>2014-6-19T4:13:31Z</time></trkpt>
<trkpt lat="46.153130" lon="7.385088"><ele></ele><time>2014-6-19T4:13:34Z</time></trkpt>
<trkpt lat="46.152617" lon="7.385115"><ele></ele><time>2014-6-19T4:13:37Z</time></trkpt>
<trkpt lat="46.152294" lon="7.385115"><ele></ele><time>2014-6-19T4:13:40Z</time></trkpt>
<trkpt lat="46.151916" lon="7.385400"><ele></ele><time>2014-6-19T4:13:43Z</time></trkpt>
<trkpt lat="46.151313" lon="7.385608"><ele></ele><time>2014-6-19T4:13:46Z</time></trkpt>
<trkpt lat="46.150513" lon="7.385544"><ele></ele><time>2014-6-19T4:13:49Z</time></trkpt>
<trkpt lat="46.149694" lon="7.385933"><ele></ele><time>2014-6-19T4:13:52Z</time></trkpt>
<trkpt lat="46.149325" lon="7.385933"><ele></ele><time>2014-6-19T4:13:55Z</time></trkpt>
<trkpt lat="46.148867" lon="7.385921"><ele></ele><time>2014-6-19T4:13:58Z</time></trkpt>
<trkpt lat="46.148336" lon="7.385870"><ele></ele><time>2014-6-19T4:14:1Z</time></trkpt>
<trkpt lat="46.148156" lon="7.385753"><ele></ele><time>2014-6-19T4:14:4Z</time></trkpt>
<trkpt lat="46.148003" lon="7.385456"><ele></ele><time>2014-6-19T4:14:7Z</time></trkpt>
<trkpt lat="46.147652" lon="7.385340"><ele></ele><time>2014-6-19T4:14:10Z</time></trkpt>
<trkpt lat="46.147265" lon="7.384952"><ele></ele><time>2014-6-19T4:14:13Z</time></trkpt>
<trkpt lat="46.147076" lon="7.385599"><ele></ele><time>2014-6-19T4:14:16Z</time></trkpt>
<trkpt lat="46.146600" lon="7.385716"><ele></ele><time>2014-6-19T4:14:19Z</time></trkpt>
<trkpt lat="46.145592" lon="7.386429"><ele></ele><time>2014-6-19T4:14:22Z</time></trkpt>
<trkpt lat="46.145089" lon="7.386701"><ele></ele><time>2014-6-19T4:14:25Z</time></trkpt>
<trkpt lat="46.144603" lon="7.386507"><ele></ele><time>2014-6-19T4:14:28Z</time></trkpt>
<trkpt lat="46.144072" lon="7.386754"><ele></ele><time>2014-6-19T4:14:31Z</time></trkpt>
<trkpt lat="46.143821" lon="7.386948"><ele></ele><time>2014-6-19T4:14:34Z</time></trkpt>
<trkpt lat="46.143200" lon="7.387220"><ele></ele><time>2014-6-19T4:14:37Z</time></trkpt>
<trkpt lat="46.143047" lon="7.387441"><ele></ele><time>2014-6-19T4:14:40Z</time></trkpt>
<trkpt lat="46.142516" lon="7.387480"><ele></ele><time>2014-6-19T4:14:43Z</time></trkpt>
<trkpt lat="46.141815" lon="7.387856"><ele></ele><time>2014-6-19T4:14:46Z</time></trkpt>
<trkpt lat="46.140951" lon="7.387908"><ele></ele><time>2014-6-19T4:14:49Z</time></trkpt>
<trkpt lat="46.140583" lon="7.387792"><ele></ele><time>2014-6-19T4:14:52Z</time></trkpt>
<trkpt lat="46.139863" lon="7.387884"><ele></ele><time>2014-6-19T4:14:55Z</time></trkpt>
<trkpt lat="46.139485" lon="7.387949"><ele></ele><time>2014-6-19T4:14:58Z</time></trkpt>
<trkpt lat="46.138991" lon="7.388195"><ele></ele><time>2014-6-19T4:15:1Z</time></trkpt>
<trkpt lat="46.138388" lon="7.388118"><ele></ele><time>2014-6-19T4:15:4Z</time></trkpt>
<trkpt lat="46.137839" lon="7.388429"><ele></ele><time>2014-6-19T4:15:7Z</time></trkpt>
<trkpt lat="46.137255" lon="7.388662"><ele></ele><time>2014-6-19T4:15:10Z</time></trkpt>
<trkpt lat="46.136247" lon="7.388689"><ele></ele><time>2014-6-19T4:15:13Z</time></trkpt>
<trkpt lat="46.135923" lon="7.388470"><ele></ele><time>2014-6-19T4:15:16Z</time></trkpt>
<trkpt lat="46.135483" lon="7.388703"><ele></ele><time>2014-6-19T4:15:19Z</time></trkpt>
<trkpt lat="46.135033" lon="7.388664"><ele></ele><time>2014-6-19T4:15:22Z</time></trkpt>
<trkpt lat="46.134331" lon="7.388173"><ele></ele><time>2014-6-19T4:15:25Z</time></trkpt>
<trkpt lat="46.133674" lon="7.388847"><ele></ele><time>2014-6-19T4:15:28Z</time></trkpt>
<trkpt lat="46.133666" lon="7.388963"><ele></ele><time>2014-6-19T4:15:31Z</time></trkpt>
<trkpt lat="46.133297" lon="7.389468"><ele></ele><time>2014-6-19T4:15:34Z</time></trkpt>
<trkpt lat="46.132847" lon="7.389598"><ele></ele><time>2014-6-19T4:15:37Z</time></trkpt>
<trkpt lat="46.132326" lon="7.389883"><ele></ele><time>2014-6-19T4:15:40Z</time></trkpt>
<trkpt lat="46.131975" lon="7.389922"><ele></ele><time>2014-6-19T4:15:43Z</time></trkpt>
<trkpt lat="46.131462" lon="7.390156"><ele></ele><time>2014-6-19T4:15:46Z</time></trkpt>
<trkpt lat="46.130995" lon="7.390518"><ele></ele><time>2014-6-19T4:15:49Z</time></trkpt>
<trkpt lat="46.130662" lon="7.390570"><ele></ele><time>2014-6-19T4:15:52Z</time></trkpt>
<trkpt lat="46.130329" lon="7.390571"><ele></ele><time>2014-6-19T4:15:55Z</time></trkpt>
<trkpt lat="46.129915" lon="7.390597"><ele></ele><time>2014-6-19T4:15:58Z</time></trkpt>
<trkpt lat="46.129690" lon="7.390714"><ele></ele><time>2014-6-19T4:16:1Z</time></trkpt>
<trkpt lat="46.129177" lon="7.390391"><ele></ele><time>2014-6-19T4:16:4Z</time></trkpt>
<trkpt lat="46.128952" lon="7.390300"><ele></ele><time>2014-6-19T4:16:7Z</time></trkpt>
<trkpt lat="46.128944" lon="7.390404"><ele></ele><time>2014-6-19T4:16:10Z</time></trkpt>
<trkpt lat="46.129591" lon="7.390843"><ele></ele><time>2014-6-19T4:16:13Z</time></trkpt>
<trkpt lat="46.128908" lon="7.390727"><ele></ele><time>2014-6-19T4:16:16Z</time></trkpt>
<trkpt lat="46.129169" lon="7.391206"><ele></ele><time>2014-6-19T4:16:19Z</time></trkpt>
<trkpt lat="46.129610" lon="7.391581"><ele></ele><time>2014-6-19T4:16:22Z</time></trkpt>
<trkpt lat="46.130248" lon="7.391696"><ele></ele><time>2014-6-19T4:16:25Z</time></trkpt>
<trkpt lat="46.131031" lon="7.392175"><ele></ele><time>2014-6-19T4:16:28Z</time></trkpt>
<trkpt lat="46.131112" lon="7.392498"><ele></ele><time>2014-6-19T4:16:31Z</time></trkpt>
<trkpt lat="46.130707" lon="7.392175"><ele></ele><time>2014-6-19T4:16:34Z</time></trkpt>
<trkpt lat="46.130644" lon="7.392356"><ele></ele><time>2014-6-19T4:16:37Z</time></trkpt>
<trkpt lat="46.130744" lon="7.392563"><ele></ele><time>2014-6-19T4:16:40Z</time></trkpt>
<trkpt lat="46.131193" lon="7.392951"><ele></ele><time>2014-6-19T4:16:43Z</time></trkpt>
<trkpt lat="46.132210" lon="7.394024"><ele></ele><time>2014-6-19T4:16:46Z</time></trkpt>
<trkpt lat="46.133065" lon="7.394360"><ele></ele><time>2014-6-19T4:16:49Z</time></trkpt>
<trkpt lat="46.133947" lon="7.395329"><ele></ele><time>2014-6-19T4:16:52Z</time></trkpt>
<trkpt lat="46.134397" lon="7.395639"><ele></ele><time>2014-6-19T4:16:55Z</time></trkpt>
<trkpt lat="46.134307" lon="7.395872"><ele></ele><time>2014-6-19T4:16:58Z</time></trkpt>
<trkpt lat="46.133605" lon="7.395407"><ele></ele><time>2014-6-19T4:17:1Z</time></trkpt>
<trkpt lat="46.132967" lon="7.395382"><ele></ele><time>2014-6-19T4:17:4Z</time></trkpt>
<trkpt lat="46.131860" lon="7.394878"><ele></ele><time>2014-6-19T4:17:7Z</time></trkpt>
<trkpt lat="46.131275" lon="7.394723"><ele></ele><time>2014-6-19T4:17:10Z</time></trkpt>
<trkpt lat="46.130924" lon="7.394698"><ele></ele><time>2014-6-19T4:17:13Z</time></trkpt>
<trkpt lat="46.130384" lon="7.394362"><ele></ele><time>2014-6-19T4:17:16Z</time></trkpt>
<trkpt lat="46.129692" lon="7.394349"><ele></ele><time>2014-6-19T4:17:19Z</time></trkpt>
<trkpt lat="46.129260" lon="7.394246"><ele></ele><time>2014-6-19T4:17:22Z</time></trkpt>
<trkpt lat="46.128801" lon="7.393936"><ele></ele><time>2014-6-19T4:17:25Z</time></trkpt>
<trkpt lat="46.128207" lon="7.393833"><ele></ele><time>2014-6-19T4:17:28Z</time></trkpt>
<trkpt lat="46.127955" lon="7.393937"><ele></ele><time>2014-6-19T4:17:31Z</time></trkpt>
<trkpt lat="46.126993" lon="7.394080"><ele></ele><time>2014-6-19T4:17:34Z</time></trkpt>
<trkpt lat="46.126444" lon="7.394313"><ele></ele><time>2014-6-19T4:17:37Z</time></trkpt>
<trkpt lat="46.126031" lon="7.394404"><ele></ele><time>2014-6-19T4:17:40Z</time></trkpt>
<trkpt lat="46.125698" lon="7.394754"><ele></ele><time>2014-6-19T4:17:43Z</time></trkpt>
<trkpt lat="46.125572" lon="7.394961"><ele></ele><time>2014-6-19T4:17:46Z</time></trkpt>
<trkpt lat="46.124817" lon="7.395595"><ele></ele><time>2014-6-19T4:17:49Z</time></trkpt>
<trkpt lat="46.124889" lon="7.395802"><ele></ele><time>2014-6-19T4:17:52Z</time></trkpt>
<trkpt lat="46.125734" lon="7.395349"><ele></ele><time>2014-6-19T4:17:55Z</time></trkpt>
<trkpt lat="46.126688" lon="7.395322"><ele></ele><time>2014-6-19T4:17:58Z</time></trkpt>
<trkpt lat="46.127515" lon="7.395477"><ele></ele><time>2014-6-19T4:18:1Z</time></trkpt>
<trkpt lat="46.128910" lon="7.396174"><ele></ele><time>2014-6-19T4:18:4Z</time></trkpt>
<trkpt lat="46.129945" lon="7.397040"><ele></ele><time>2014-6-19T4:18:7Z</time></trkpt>
<trkpt lat="46.130503" lon="7.397726"><ele></ele><time>2014-6-19T4:18:10Z</time></trkpt>
<trkpt lat="46.130809" lon="7.398528"><ele></ele><time>2014-6-19T4:18:13Z</time></trkpt>
<trkpt lat="46.133148" lon="7.400182"><ele></ele><time>2014-6-19T4:18:16Z</time></trkpt>
<trkpt lat="46.130854" lon="7.399770"><ele></ele><time>2014-6-19T4:18:19Z</time></trkpt>
<trkpt lat="46.130602" lon="7.399524"><ele></ele><time>2014-6-19T4:18:22Z</time></trkpt>
<trkpt lat="46.129910" lon="7.399589"><ele></ele><time>2014-6-19T4:18:25Z</time></trkpt>
<trkpt lat="46.129406" lon="7.399965"><ele></ele><time>2014-6-19T4:18:28Z</time></trkpt>
<trkpt lat="46.128920" lon="7.399991"><ele></ele><time>2014-6-19T4:18:31Z</time></trkpt>
<trkpt lat="46.128542" lon="7.399590"><ele></ele><time>2014-6-19T4:18:34Z</time></trkpt>
<trkpt lat="46.127265" lon="7.399682"><ele></ele><time>2014-6-19T4:18:37Z</time></trkpt>
<trkpt lat="46.126644" lon="7.400109"><ele></ele><time>2014-6-19T4:18:40Z</time></trkpt>
<trkpt lat="46.126303" lon="7.400265"><ele></ele><time>2014-6-19T4:18:43Z</time></trkpt>
<trkpt lat="46.125421" lon="7.400162"><ele></ele><time>2014-6-19T4:18:46Z</time></trkpt>
<trkpt lat="46.125115" lon="7.400317"><ele></ele><time>2014-6-19T4:18:49Z</time></trkpt>
<trkpt lat="46.124477" lon="7.400913"><ele></ele><time>2014-6-19T4:18:52Z</time></trkpt>
<trkpt lat="46.123955" lon="7.401198"><ele></ele><time>2014-6-19T4:18:55Z</time></trkpt>
<trkpt lat="46.123559" lon="7.401340"><ele></ele><time>2014-6-19T4:18:58Z</time></trkpt>
<trkpt lat="46.123119" lon="7.401703"><ele></ele><time>2014-6-19T4:19:1Z</time></trkpt>
<trkpt lat="46.122723" lon="7.401975"><ele></ele><time>2014-6-19T4:19:4Z</time></trkpt>
<trkpt lat="46.122795" lon="7.402117"><ele></ele><time>2014-6-19T4:19:7Z</time></trkpt>
<trkpt lat="46.123362" lon="7.401819"><ele></ele><time>2014-6-19T4:19:10Z</time></trkpt>
<trkpt lat="46.123650" lon="7.401935"><ele></ele><time>2014-6-19T4:19:13Z</time></trkpt>
<trkpt lat="46.124018" lon="7.402245"><ele></ele><time>2014-6-19T4:19:16Z</time></trkpt>
<trkpt lat="46.124378" lon="7.402375"><ele></ele><time>2014-6-19T4:19:19Z</time></trkpt>
<trkpt lat="46.124828" lon="7.402465"><ele></ele><time>2014-6-19T4:19:22Z</time></trkpt>
<trkpt lat="46.125116" lon="7.402672"><ele></ele><time>2014-6-19T4:19:25Z</time></trkpt>
<trkpt lat="46.125557" lon="7.402969"><ele></ele><time>2014-6-19T4:19:28Z</time></trkpt>
<trkpt lat="46.126178" lon="7.403085"><ele></ele><time>2014-6-19T4:19:31Z</time></trkpt>
<trkpt lat="46.126501" lon="7.403085"><ele></ele><time>2014-6-19T4:19:34Z</time></trkpt>
<trkpt lat="46.126825" lon="7.403266"><ele></ele><time>2014-6-19T4:19:37Z</time></trkpt>
<trkpt lat="46.126996" lon="7.403589"><ele></ele><time>2014-6-19T4:19:40Z</time></trkpt>
<trkpt lat="46.127311" lon="7.404016"><ele></ele><time>2014-6-19T4:19:43Z</time></trkpt>
<trkpt lat="46.127851" lon="7.404300"><ele></ele><time>2014-6-19T4:19:46Z</time></trkpt>
<trkpt lat="46.128175" lon="7.404416"><ele></ele><time>2014-6-19T4:19:49Z</time></trkpt>
<trkpt lat="46.128742" lon="7.404118"><ele></ele><time>2014-6-19T4:19:52Z</time></trkpt>
<trkpt lat="46.129371" lon="7.403652"><ele></ele><time>2014-6-19T4:19:55Z</time></trkpt>
<trkpt lat="46.129587" lon="7.403652"><ele></ele><time>2014-6-19T4:19:58Z</time></trkpt>
<trkpt lat="46.129551" lon="7.403924"><ele></ele><time>2014-6-19T4:20:1Z</time></trkpt>
<trkpt lat="46.129129" lon="7.404338"><ele></ele><time>2014-6-19T4:20:4Z</time></trkpt>
<trkpt lat="46.128319" lon="7.405451"><ele></ele><time>2014-6-19T4:20:7Z</time></trkpt>
<trkpt lat="46.127968" lon="7.405646"><ele></ele><time>2014-6-19T4:20:10Z</time></trkpt>
<trkpt lat="46.127924" lon="7.405956"><ele></ele><time>2014-6-19T4:20:13Z</time></trkpt>
<trkpt lat="46.128175" lon="7.405814"><ele></ele><time>2014-6-19T4:20:16Z</time></trkpt>
<trkpt lat="46.128436" lon="7.405710"><ele></ele><time>2014-6-19T4:20:19Z</time></trkpt>
<trkpt lat="46.128724" lon="7.405787"><ele></ele><time>2014-6-19T4:20:22Z</time></trkpt>
<trkpt lat="46.128850" lon="7.406150"><ele></ele><time>2014-6-19T4:20:25Z</time></trkpt>
<trkpt lat="46.128850" lon="7.406719"><ele></ele><time>2014-6-19T4:20:28Z</time></trkpt>
<trkpt lat="46.128769" lon="7.407029"><ele></ele><time>2014-6-19T4:20:31Z</time></trkpt>
<trkpt lat="46.128491" lon="7.407353"><ele></ele><time>2014-6-19T4:20:34Z</time></trkpt>
<trkpt lat="46.128338" lon="7.407508"><ele></ele><time>2014-6-19T4:20:37Z</time></trkpt>
<trkpt lat="46.128248" lon="7.408026"><ele></ele><time>2014-6-19T4:20:40Z</time></trkpt>
<trkpt lat="46.128050" lon="7.408337"><ele></ele><time>2014-6-19T4:20:43Z</time></trkpt>
<trkpt lat="46.127870" lon="7.408401"><ele></ele><time>2014-6-19T4:20:46Z</time></trkpt>
<trkpt lat="46.127663" lon="7.408570"><ele></ele><time>2014-6-19T4:20:49Z</time></trkpt>
<trkpt lat="46.127664" lon="7.408725"><ele></ele><time>2014-6-19T4:20:52Z</time></trkpt>
<trkpt lat="46.127843" lon="7.408725"><ele></ele><time>2014-6-19T4:20:55Z</time></trkpt>
<trkpt lat="46.128212" lon="7.409022"><ele></ele><time>2014-6-19T4:20:58Z</time></trkpt>
<trkpt lat="46.128626" lon="7.409100"><ele></ele><time>2014-6-19T4:21:1Z</time></trkpt>
<trkpt lat="46.128842" lon="7.409436"><ele></ele><time>2014-6-19T4:21:4Z</time></trkpt>
<trkpt lat="46.129355" lon="7.409875"><ele></ele><time>2014-6-19T4:21:7Z</time></trkpt>
<trkpt lat="46.129967" lon="7.409940"><ele></ele><time>2014-6-19T4:21:10Z</time></trkpt>
<trkpt lat="46.130237" lon="7.409914"><ele></ele><time>2014-6-19T4:21:13Z</time></trkpt>
<trkpt lat="46.130533" lon="7.409810"><ele></ele><time>2014-6-19T4:21:16Z</time></trkpt>
<trkpt lat="46.130219" lon="7.410237"><ele></ele><time>2014-6-19T4:21:19Z</time></trkpt>
<trkpt lat="46.130003" lon="7.410587"><ele></ele><time>2014-6-19T4:21:22Z</time></trkpt>
<trkpt lat="46.129679" lon="7.410742"><ele></ele><time>2014-6-19T4:21:25Z</time></trkpt>
<trkpt lat="46.129436" lon="7.410768"><ele></ele><time>2014-6-19T4:21:28Z</time></trkpt>
<trkpt lat="46.129148" lon="7.410587"><ele></ele><time>2014-6-19T4:21:31Z</time></trkpt>
<trkpt lat="46.129220" lon="7.410859"><ele></ele><time>2014-6-19T4:21:34Z</time></trkpt>
<trkpt lat="46.129490" lon="7.410962"><ele></ele><time>2014-6-19T4:21:37Z</time></trkpt>
<trkpt lat="46.129760" lon="7.411286"><ele></ele><time>2014-6-19T4:21:40Z</time></trkpt>
<trkpt lat="46.130345" lon="7.411246"><ele></ele><time>2014-6-19T4:21:43Z</time></trkpt>
<trkpt lat="46.130678" lon="7.411389"><ele></ele><time>2014-6-19T4:21:46Z</time></trkpt>
<trkpt lat="46.131190" lon="7.411337"><ele></ele><time>2014-6-19T4:21:49Z</time></trkpt>
<trkpt lat="46.132153" lon="7.412100"><ele></ele><time>2014-6-19T4:21:52Z</time></trkpt>
<trkpt lat="46.132135" lon="7.412371"><ele></ele><time>2014-6-19T4:21:55Z</time></trkpt>
<trkpt lat="46.133125" lon="7.412850"><ele></ele><time>2014-6-19T4:21:58Z</time></trkpt>
<trkpt lat="46.133583" lon="7.412396"><ele></ele><time>2014-6-19T4:22:1Z</time></trkpt>
<trkpt lat="46.134060" lon="7.412228"><ele></ele><time>2014-6-19T4:22:4Z</time></trkpt>
<trkpt lat="46.134348" lon="7.412396"><ele></ele><time>2014-6-19T4:22:7Z</time></trkpt>
<trkpt lat="46.134528" lon="7.412758"><ele></ele><time>2014-6-19T4:22:10Z</time></trkpt>
<trkpt lat="46.134780" lon="7.413108"><ele></ele><time>2014-6-19T4:22:13Z</time></trkpt>
<trkpt lat="46.135230" lon="7.413198"><ele></ele><time>2014-6-19T4:22:16Z</time></trkpt>
<trkpt lat="46.135770" lon="7.413301"><ele></ele><time>2014-6-19T4:22:19Z</time></trkpt>
<trkpt lat="46.136183" lon="7.413689"><ele></ele><time>2014-6-19T4:22:22Z</time></trkpt>
<trkpt lat="46.136615" lon="7.413857"><ele></ele><time>2014-6-19T4:22:25Z</time></trkpt>
<trkpt lat="46.136939" lon="7.413935"><ele></ele><time>2014-6-19T4:22:28Z</time></trkpt>
<trkpt lat="46.137632" lon="7.413456"><ele></ele><time>2014-6-19T4:22:31Z</time></trkpt>
<trkpt lat="46.138396" lon="7.413455"><ele></ele><time>2014-6-19T4:22:34Z</time></trkpt>
<trkpt lat="46.139107" lon="7.412937"><ele></ele><time>2014-6-19T4:22:37Z</time></trkpt>
<trkpt lat="46.139269" lon="7.413222"><ele></ele><time>2014-6-19T4:22:40Z</time></trkpt>
<trkpt lat="46.139737" lon="7.413248"><ele></ele><time>2014-6-19T4:22:43Z</time></trkpt>
<trkpt lat="46.140609" lon="7.413195"><ele></ele><time>2014-6-19T4:22:46Z</time></trkpt>
<trkpt lat="46.141266" lon="7.413195"><ele></ele><time>2014-6-19T4:22:49Z</time></trkpt>
<trkpt lat="46.142210" lon="7.413169"><ele></ele><time>2014-6-19T4:22:52Z</time></trkpt>
<trkpt lat="46.142507" lon="7.413285"><ele></ele><time>2014-6-19T4:22:55Z</time></trkpt>
<trkpt lat="46.142750" lon="7.414269"><ele></ele><time>2014-6-19T4:22:58Z</time></trkpt>
<trkpt lat="46.143164" lon="7.414734"><ele></ele><time>2014-6-19T4:23:1Z</time></trkpt>
<trkpt lat="46.143596" lon="7.414967"><ele></ele><time>2014-6-19T4:23:4Z</time></trkpt>
<trkpt lat="46.144127" lon="7.415484"><ele></ele><time>2014-6-19T4:23:7Z</time></trkpt>
<trkpt lat="46.144442" lon="7.415653"><ele></ele><time>2014-6-19T4:23:10Z</time></trkpt>
<trkpt lat="46.144730" lon="7.415575"><ele></ele><time>2014-6-19T4:23:13Z</time></trkpt>
<trkpt lat="46.145062" lon="7.415601"><ele></ele><time>2014-6-19T4:23:16Z</time></trkpt>
<trkpt lat="46.145305" lon="7.415355"><ele></ele><time>2014-6-19T4:23:19Z</time></trkpt>
<trkpt lat="46.145494" lon="7.415147"><ele></ele><time>2014-6-19T4:23:22Z</time></trkpt>
<trkpt lat="46.145899" lon="7.414655"><ele></ele><time>2014-6-19T4:23:25Z</time></trkpt>
<trkpt lat="46.146196" lon="7.415147"><ele></ele><time>2014-6-19T4:23:28Z</time></trkpt>
<trkpt lat="46.146430" lon="7.415186"><ele></ele><time>2014-6-19T4:23:31Z</time></trkpt>
<trkpt lat="46.146448" lon="7.415483"><ele></ele><time>2014-6-19T4:23:34Z</time></trkpt>
<trkpt lat="46.146196" lon="7.415846"><ele></ele><time>2014-6-19T4:23:37Z</time></trkpt>
<trkpt lat="46.145863" lon="7.416416"><ele></ele><time>2014-6-19T4:23:40Z</time></trkpt>
<trkpt lat="46.145782" lon="7.417101"><ele></ele><time>2014-6-19T4:23:43Z</time></trkpt>
<trkpt lat="46.145719" lon="7.417490"><ele></ele><time>2014-6-19T4:23:46Z</time></trkpt>
<trkpt lat="46.145621" lon="7.417904"><ele></ele><time>2014-6-19T4:23:49Z</time></trkpt>
<trkpt lat="46.145351" lon="7.418875"><ele></ele><time>2014-6-19T4:23:52Z</time></trkpt>
<trkpt lat="46.145261" lon="7.419418"><ele></ele><time>2014-6-19T4:23:55Z</time></trkpt>
<trkpt lat="46.145162" lon="7.419716"><ele></ele><time>2014-6-19T4:23:58Z</time></trkpt>
<trkpt lat="46.145333" lon="7.420156"><ele></ele><time>2014-6-19T4:24:1Z</time></trkpt>
<trkpt lat="46.145342" lon="7.420700"><ele></ele><time>2014-6-19T4:24:4Z</time></trkpt>
<trkpt lat="46.145225" lon="7.421114"><ele></ele><time>2014-6-19T4:24:7Z</time></trkpt>
<trkpt lat="46.145279" lon="7.421528"><ele></ele><time>2014-6-19T4:24:10Z</time></trkpt>
<trkpt lat="46.145055" lon="7.421968"><ele></ele><time>2014-6-19T4:24:13Z</time></trkpt>
<trkpt lat="46.144506" lon="7.422952"><ele></ele><time>2014-6-19T4:24:16Z</time></trkpt>
<trkpt lat="46.144218" lon="7.423625"><ele></ele><time>2014-6-19T4:24:19Z</time></trkpt>
<trkpt lat="46.143948" lon="7.424337"><ele></ele><time>2014-6-19T4:24:22Z</time></trkpt>
<trkpt lat="46.143787" lon="7.424699"><ele></ele><time>2014-6-19T4:24:25Z</time></trkpt>
<trkpt lat="46.143454" lon="7.424906"><ele></ele><time>2014-6-19T4:24:28Z</time></trkpt>
<trkpt lat="46.143040" lon="7.425644"><ele></ele><time>2014-6-19T4:24:31Z</time></trkpt>
<trkpt lat="46.143049" lon="7.426679"><ele></ele><time>2014-6-19T4:24:34Z</time></trkpt>
<trkpt lat="46.142788" lon="7.427715"><ele></ele><time>2014-6-19T4:24:37Z</time></trkpt>
<trkpt lat="46.142645" lon="7.428155"><ele></ele><time>2014-6-19T4:24:40Z</time></trkpt>
<trkpt lat="46.142465" lon="7.428582"><ele></ele><time>2014-6-19T4:24:43Z</time></trkpt>
<trkpt lat="46.142483" lon="7.429294"><ele></ele><time>2014-6-19T4:24:46Z</time></trkpt>
<trkpt lat="46.142294" lon="7.430627"><ele></ele><time>2014-6-19T4:24:49Z</time></trkpt>
<trkpt lat="46.142312" lon="7.431274"><ele></ele><time>2014-6-19T4:24:52Z</time></trkpt>
<trkpt lat="46.142159" lon="7.431895"><ele></ele><time>2014-6-19T4:24:55Z</time></trkpt>
<trkpt lat="46.142033" lon="7.432102"><ele></ele><time>2014-6-19T4:24:58Z</time></trkpt>
<trkpt lat="46.142159" lon="7.432632"><ele></ele><time>2014-6-19T4:25:1Z</time></trkpt>
<trkpt lat="46.141907" lon="7.433707"><ele></ele><time>2014-6-19T4:25:4Z</time></trkpt>
<trkpt lat="46.141538" lon="7.434871"><ele></ele><time>2014-6-19T4:25:7Z</time></trkpt>
<trkpt lat="46.141107" lon="7.435441"><ele></ele><time>2014-6-19T4:25:10Z</time></trkpt>
<trkpt lat="46.140900" lon="7.436243"><ele></ele><time>2014-6-19T4:25:13Z</time></trkpt>
<trkpt lat="46.140504" lon="7.436631"><ele></ele><time>2014-6-19T4:25:16Z</time></trkpt>
<trkpt lat="46.140261" lon="7.437201"><ele></ele><time>2014-6-19T4:25:19Z</time></trkpt>
<trkpt lat="46.139865" lon="7.438055"><ele></ele><time>2014-6-19T4:25:22Z</time></trkpt>
<trkpt lat="46.139389" lon="7.438495"><ele></ele><time>2014-6-19T4:25:25Z</time></trkpt>
<trkpt lat="46.138858" lon="7.438560"><ele></ele><time>2014-6-19T4:25:28Z</time></trkpt>
<trkpt lat="46.138705" lon="7.438598"><ele></ele><time>2014-6-19T4:25:31Z</time></trkpt>
<trkpt lat="46.138759" lon="7.438534"><ele></ele><time>2014-6-19T4:25:34Z</time></trkpt>
<trkpt lat="46.138552" lon="7.439038"><ele></ele><time>2014-6-19T4:25:37Z</time></trkpt>
<trkpt lat="46.137886" lon="7.439000"><ele></ele><time>2014-6-19T4:25:40Z</time></trkpt>
<trkpt lat="46.137500" lon="7.438728"><ele></ele><time>2014-6-19T4:25:43Z</time></trkpt>
<trkpt lat="46.136897" lon="7.438469"><ele></ele><time>2014-6-19T4:25:46Z</time></trkpt>
<trkpt lat="46.135952" lon="7.438650"><ele></ele><time>2014-6-19T4:25:49Z</time></trkpt>
<trkpt lat="46.135332" lon="7.438728"><ele></ele><time>2014-6-19T4:25:52Z</time></trkpt>
<trkpt lat="46.134612" lon="7.438585"><ele></ele><time>2014-6-19T4:25:55Z</time></trkpt>
<trkpt lat="46.134162" lon="7.438585"><ele></ele><time>2014-6-19T4:25:58Z</time></trkpt>
<trkpt lat="46.133694" lon="7.439000"><ele></ele><time>2014-6-19T4:26:1Z</time></trkpt>
<trkpt lat="46.133146" lon="7.439776"><ele></ele><time>2014-6-19T4:26:4Z</time></trkpt>
<trkpt lat="46.132669" lon="7.439892"><ele></ele><time>2014-6-19T4:26:7Z</time></trkpt>
<trkpt lat="46.132237" lon="7.439711"><ele></ele><time>2014-6-19T4:26:10Z</time></trkpt>
<trkpt lat="46.131706" lon="7.439802"><ele></ele><time>2014-6-19T4:26:13Z</time></trkpt>
<trkpt lat="46.130924" lon="7.440099"><ele></ele><time>2014-6-19T4:26:16Z</time></trkpt>
<trkpt lat="46.130258" lon="7.440604"><ele></ele><time>2014-6-19T4:26:19Z</time></trkpt>
<trkpt lat="46.129790" lon="7.441251"><ele></ele><time>2014-6-19T4:26:22Z</time></trkpt>
<trkpt lat="46.129440" lon="7.441729"><ele></ele><time>2014-6-19T4:26:25Z</time></trkpt>
<trkpt lat="46.128918" lon="7.442053"><ele></ele><time>2014-6-19T4:26:28Z</time></trkpt>
<trkpt lat="46.128711" lon="7.442545"><ele></ele><time>2014-6-19T4:26:31Z</time></trkpt>
<trkpt lat="46.128369" lon="7.442713"><ele></ele><time>2014-6-19T4:26:34Z</time></trkpt>
<trkpt lat="46.128387" lon="7.443049"><ele></ele><time>2014-6-19T4:26:37Z</time></trkpt>
<trkpt lat="46.128351" lon="7.443437"><ele></ele><time>2014-6-19T4:26:40Z</time></trkpt>
<trkpt lat="46.128144" lon="7.443787"><ele></ele><time>2014-6-19T4:26:43Z</time></trkpt>
<trkpt lat="46.127991" lon="7.444149"><ele></ele><time>2014-6-19T4:26:46Z</time></trkpt>
<trkpt lat="46.127667" lon="7.444576"><ele></ele><time>2014-6-19T4:26:49Z</time></trkpt>
<trkpt lat="46.127442" lon="7.444860"><ele></ele><time>2014-6-19T4:26:52Z</time></trkpt>
<trkpt lat="46.127514" lon="7.445611"><ele></ele><time>2014-6-19T4:26:55Z</time></trkpt>
<trkpt lat="46.127622" lon="7.445947"><ele></ele><time>2014-6-19T4:26:58Z</time></trkpt>
<trkpt lat="46.127766" lon="7.446387"><ele></ele><time>2014-6-19T4:27:1Z</time></trkpt>
<trkpt lat="46.127910" lon="7.447008"><ele></ele><time>2014-6-19T4:27:4Z</time></trkpt>
<trkpt lat="46.128117" lon="7.447539"><ele></ele><time>2014-6-19T4:27:7Z</time></trkpt>
<trkpt lat="46.128180" lon="7.448341"><ele></ele><time>2014-6-19T4:27:10Z</time></trkpt>
<trkpt lat="46.128063" lon="7.448871"><ele></ele><time>2014-6-19T4:27:13Z</time></trkpt>
<trkpt lat="46.127649" lon="7.449997"><ele></ele><time>2014-6-19T4:27:16Z</time></trkpt>
<trkpt lat="46.127361" lon="7.450527"><ele></ele><time>2014-6-19T4:27:19Z</time></trkpt>
<trkpt lat="46.127280" lon="7.450902"><ele></ele><time>2014-6-19T4:27:22Z</time></trkpt>
<trkpt lat="46.126731" lon="7.452157"><ele></ele><time>2014-6-19T4:27:25Z</time></trkpt>
<trkpt lat="46.125679" lon="7.453386"><ele></ele><time>2014-6-19T4:27:28Z</time></trkpt>
<trkpt lat="46.123834" lon="7.454601"><ele></ele><time>2014-6-19T4:27:31Z</time></trkpt>
<trkpt lat="46.122377" lon="7.455312"><ele></ele><time>2014-6-19T4:27:34Z</time></trkpt>
<trkpt lat="46.122926" lon="7.455261"><ele></ele><time>2014-6-19T4:27:37Z</time></trkpt>
<trkpt lat="46.123276" lon="7.455287"><ele></ele><time>2014-6-19T4:27:40Z</time></trkpt>
<trkpt lat="46.123969" lon="7.455429"><ele></ele><time>2014-6-19T4:27:43Z</time></trkpt>
<trkpt lat="46.124437" lon="7.455404"><ele></ele><time>2014-6-19T4:27:46Z</time></trkpt>
<trkpt lat="46.125094" lon="7.455223"><ele></ele><time>2014-6-19T4:27:49Z</time></trkpt>
<trkpt lat="46.125669" lon="7.455275"><ele></ele><time>2014-6-19T4:27:52Z</time></trkpt>
<trkpt lat="46.126047" lon="7.455495"><ele></ele><time>2014-6-19T4:27:55Z</time></trkpt>
<trkpt lat="46.126533" lon="7.455547"><ele></ele><time>2014-6-19T4:27:58Z</time></trkpt>
<trkpt lat="46.126497" lon="7.455689"><ele></ele><time>2014-6-19T4:28:1Z</time></trkpt>
<trkpt lat="46.126182" lon="7.455961"><ele></ele><time>2014-6-19T4:28:4Z</time></trkpt>
<trkpt lat="46.125633" lon="7.456116"><ele></ele><time>2014-6-19T4:28:7Z</time></trkpt>
<trkpt lat="46.125417" lon="7.456206"><ele></ele><time>2014-6-19T4:28:10Z</time></trkpt>
<trkpt lat="46.124985" lon="7.456374"><ele></ele><time>2014-6-19T4:28:13Z</time></trkpt>
<trkpt lat="46.124724" lon="7.456710"><ele></ele><time>2014-6-19T4:28:16Z</time></trkpt>
<trkpt lat="46.124311" lon="7.456878"><ele></ele><time>2014-6-19T4:28:19Z</time></trkpt>
<trkpt lat="46.124167" lon="7.457021"><ele></ele><time>2014-6-19T4:28:22Z</time></trkpt>
<trkpt lat="46.124679" lon="7.457060"><ele></ele><time>2014-6-19T4:28:25Z</time></trkpt>
<trkpt lat="46.124940" lon="7.457383"><ele></ele><time>2014-6-19T4:28:28Z</time></trkpt>
<trkpt lat="46.125156" lon="7.457448"><ele></ele><time>2014-6-19T4:28:31Z</time></trkpt>
<trkpt lat="46.125588" lon="7.457487"><ele></ele><time>2014-6-19T4:28:34Z</time></trkpt>
<trkpt lat="46.125930" lon="7.457435"><ele></ele><time>2014-6-19T4:28:37Z</time></trkpt>
<trkpt lat="46.126407" lon="7.457034"><ele></ele><time>2014-6-19T4:28:40Z</time></trkpt>
<trkpt lat="46.126892" lon="7.456905"><ele></ele><time>2014-6-19T4:28:43Z</time></trkpt>
<trkpt lat="46.127306" lon="7.456517"><ele></ele><time>2014-6-19T4:28:46Z</time></trkpt>
<trkpt lat="46.127882" lon="7.455741"><ele></ele><time>2014-6-19T4:28:49Z</time></trkpt>
<trkpt lat="46.128305" lon="7.455392"><ele></ele><time>2014-6-19T4:28:52Z</time></trkpt>
<trkpt lat="46.128629" lon="7.454926"><ele></ele><time>2014-6-19T4:28:55Z</time></trkpt>
<trkpt lat="46.128971" lon="7.454668"><ele></ele><time>2014-6-19T4:28:58Z</time></trkpt>
<trkpt lat="46.128422" lon="7.455909"><ele></ele><time>2014-6-19T4:29:1Z</time></trkpt>
<trkpt lat="46.128233" lon="7.456298"><ele></ele><time>2014-6-19T4:29:4Z</time></trkpt>
<trkpt lat="46.127936" lon="7.456608"><ele></ele><time>2014-6-19T4:29:7Z</time></trkpt>
<trkpt lat="46.128557" lon="7.456414"><ele></ele><time>2014-6-19T4:29:10Z</time></trkpt>
<trkpt lat="46.129006" lon="7.456181"><ele></ele><time>2014-6-19T4:29:13Z</time></trkpt>
<trkpt lat="46.129798" lon="7.455172"><ele></ele><time>2014-6-19T4:29:16Z</time></trkpt>
<trkpt lat="46.129483" lon="7.456039"><ele></ele><time>2014-6-19T4:29:19Z</time></trkpt>
<trkpt lat="46.129240" lon="7.456802"><ele></ele><time>2014-6-19T4:29:22Z</time></trkpt>
<trkpt lat="46.128862" lon="7.457605"><ele></ele><time>2014-6-19T4:29:25Z</time></trkpt>
<trkpt lat="46.128367" lon="7.458109"><ele></ele><time>2014-6-19T4:29:28Z</time></trkpt>
<trkpt lat="46.128367" lon="7.458368"><ele></ele><time>2014-6-19T4:29:31Z</time></trkpt>
<trkpt lat="46.128133" lon="7.458859"><ele></ele><time>2014-6-19T4:29:34Z</time></trkpt>
<trkpt lat="46.127819" lon="7.458846"><ele></ele><time>2014-6-19T4:29:37Z</time></trkpt>
<trkpt lat="46.127036" lon="7.459764"><ele></ele><time>2014-6-19T4:29:40Z</time></trkpt>
<trkpt lat="46.126352" lon="7.459997"><ele></ele><time>2014-6-19T4:29:43Z</time></trkpt>
<trkpt lat="46.125551" lon="7.460475"><ele></ele><time>2014-6-19T4:29:46Z</time></trkpt>
<trkpt lat="46.125147" lon="7.460812"><ele></ele><time>2014-6-19T4:29:49Z</time></trkpt>
<trkpt lat="46.124499" lon="7.460915"><ele></ele><time>2014-6-19T4:29:52Z</time></trkpt>
<trkpt lat="46.122781" lon="7.461095"><ele></ele><time>2014-6-19T4:29:55Z</time></trkpt>
<trkpt lat="46.122574" lon="7.461393"><ele></ele><time>2014-6-19T4:29:58Z</time></trkpt>
<trkpt lat="46.123006" lon="7.461328"><ele></ele><time>2014-6-19T4:30:1Z</time></trkpt>
<trkpt lat="46.124391" lon="7.461833"><ele></ele><time>2014-6-19T4:30:4Z</time></trkpt>
<trkpt lat="46.125074" lon="7.462286"><ele></ele><time>2014-6-19T4:30:7Z</time></trkpt>
<trkpt lat="46.124409" lon="7.462196"><ele></ele><time>2014-6-19T4:30:10Z</time></trkpt>
<trkpt lat="46.123707" lon="7.462312"><ele></ele><time>2014-6-19T4:30:13Z</time></trkpt>
<trkpt lat="46.123500" lon="7.462700"><ele></ele><time>2014-6-19T4:30:16Z</time></trkpt>
<trkpt lat="46.123266" lon="7.463398"><ele></ele><time>2014-6-19T4:30:19Z</time></trkpt>
<trkpt lat="46.122933" lon="7.463515"><ele></ele><time>2014-6-19T4:30:22Z</time></trkpt>
<trkpt lat="46.122825" lon="7.463760"><ele></ele><time>2014-6-19T4:30:25Z</time></trkpt>
<trkpt lat="46.123338" lon="7.463735"><ele></ele><time>2014-6-19T4:30:28Z</time></trkpt>
<trkpt lat="46.123752" lon="7.463670"><ele></ele><time>2014-6-19T4:30:31Z</time></trkpt>
<trkpt lat="46.124103" lon="7.463437"><ele></ele><time>2014-6-19T4:30:34Z</time></trkpt>
<trkpt lat="46.124435" lon="7.463554"><ele></ele><time>2014-6-19T4:30:37Z</time></trkpt>
<trkpt lat="46.124867" lon="7.463697"><ele></ele><time>2014-6-19T4:30:40Z</time></trkpt>
<trkpt lat="46.125200" lon="7.463865"><ele></ele><time>2014-6-19T4:30:43Z</time></trkpt>
<trkpt lat="46.125425" lon="7.464007"><ele></ele><time>2014-6-19T4:30:46Z</time></trkpt>
<trkpt lat="46.125767" lon="7.463788"><ele></ele><time>2014-6-19T4:30:49Z</time></trkpt>
<trkpt lat="46.125380" lon="7.464292"><ele></ele><time>2014-6-19T4:30:52Z</time></trkpt>
<trkpt lat="46.125137" lon="7.464331"><ele></ele><time>2014-6-19T4:30:55Z</time></trkpt>
<trkpt lat="46.124840" lon="7.464305"><ele></ele><time>2014-6-19T4:30:58Z</time></trkpt>
<trkpt lat="46.124804" lon="7.464499"><ele></ele><time>2014-6-19T4:31:1Z</time></trkpt>
<trkpt lat="46.125335" lon="7.464602"><ele></ele><time>2014-6-19T4:31:4Z</time></trkpt>
<trkpt lat="46.125506" lon="7.464564"><ele></ele><time>2014-6-19T4:31:7Z</time></trkpt>
<trkpt lat="46.125892" lon="7.464292"><ele></ele><time>2014-6-19T4:31:10Z</time></trkpt>
<trkpt lat="46.125461" lon="7.464887"><ele></ele><time>2014-6-19T4:31:13Z</time></trkpt>
<trkpt lat="46.124993" lon="7.465003"><ele></ele><time>2014-6-19T4:31:16Z</time></trkpt>
<trkpt lat="46.124552" lon="7.464887"><ele></ele><time>2014-6-19T4:31:19Z</time></trkpt>
<trkpt lat="46.124120" lon="7.465184"><ele></ele><time>2014-6-19T4:31:22Z</time></trkpt>
<trkpt lat="46.123688" lon="7.465546"><ele></ele><time>2014-6-19T4:31:25Z</time></trkpt>
<trkpt lat="46.122654" lon="7.465869"><ele></ele><time>2014-6-19T4:31:28Z</time></trkpt>
<trkpt lat="46.121691" lon="7.465985"><ele></ele><time>2014-6-19T4:31:31Z</time></trkpt>
<trkpt lat="46.121547" lon="7.466347"><ele></ele><time>2014-6-19T4:31:34Z</time></trkpt>
<trkpt lat="46.121592" lon="7.467046"><ele></ele><time>2014-6-19T4:31:37Z</time></trkpt>
<trkpt lat="46.120926" lon="7.467175"><ele></ele><time>2014-6-19T4:31:40Z</time></trkpt>
<trkpt lat="46.120728" lon="7.467317"><ele></ele><time>2014-6-19T4:31:43Z</time></trkpt>
<trkpt lat="46.120845" lon="7.467382"><ele></ele><time>2014-6-19T4:31:46Z</time></trkpt>
<trkpt lat="46.121259" lon="7.467265"><ele></ele><time>2014-6-19T4:31:49Z</time></trkpt>
<trkpt lat="46.121583" lon="7.467356"><ele></ele><time>2014-6-19T4:31:52Z</time></trkpt>
<trkpt lat="46.121727" lon="7.467291"><ele></ele><time>2014-6-19T4:31:55Z</time></trkpt>
<trkpt lat="46.122006" lon="7.466722"><ele></ele><time>2014-6-19T4:31:58Z</time></trkpt>
<trkpt lat="46.122707" lon="7.467020"><ele></ele><time>2014-6-19T4:32:1Z</time></trkpt>
<trkpt lat="46.123121" lon="7.467085"><ele></ele><time>2014-6-19T4:32:4Z</time></trkpt>
<trkpt lat="46.123508" lon="7.466904"><ele></ele><time>2014-6-19T4:32:7Z</time></trkpt>
<trkpt lat="46.124066" lon="7.466827"><ele></ele><time>2014-6-19T4:32:10Z</time></trkpt>
<trkpt lat="46.124551" lon="7.467034"><ele></ele><time>2014-6-19T4:32:13Z</time></trkpt>
<trkpt lat="46.125091" lon="7.467022"><ele></ele><time>2014-6-19T4:32:16Z</time></trkpt>
<trkpt lat="46.125469" lon="7.466854"><ele></ele><time>2014-6-19T4:32:19Z</time></trkpt>
<trkpt lat="46.125343" lon="7.467060"><ele></ele><time>2014-6-19T4:32:22Z</time></trkpt>
<trkpt lat="46.124947" lon="7.467228"><ele></ele><time>2014-6-19T4:32:25Z</time></trkpt>
<trkpt lat="46.124578" lon="7.467565"><ele></ele><time>2014-6-19T4:32:28Z</time></trkpt>
<trkpt lat="46.123940" lon="7.467745"><ele></ele><time>2014-6-19T4:32:31Z</time></trkpt>
<trkpt lat="46.123463" lon="7.467978"><ele></ele><time>2014-6-19T4:32:34Z</time></trkpt>
<trkpt lat="46.123139" lon="7.468198"><ele></ele><time>2014-6-19T4:32:37Z</time></trkpt>
<trkpt lat="46.122824" lon="7.468249"><ele></ele><time>2014-6-19T4:32:40Z</time></trkpt>
<trkpt lat="46.122401" lon="7.468288"><ele></ele><time>2014-6-19T4:32:43Z</time></trkpt>
<trkpt lat="46.122221" lon="7.468508"><ele></ele><time>2014-6-19T4:32:46Z</time></trkpt>
<trkpt lat="46.121771" lon="7.469219"><ele></ele><time>2014-6-19T4:32:49Z</time></trkpt>
<trkpt lat="46.121420" lon="7.469245"><ele></ele><time>2014-6-19T4:32:52Z</time></trkpt>
<trkpt lat="46.121052" lon="7.469244"><ele></ele><time>2014-6-19T4:32:55Z</time></trkpt>
<trkpt lat="46.120926" lon="7.469426"><ele></ele><time>2014-6-19T4:32:58Z</time></trkpt>
<trkpt lat="46.120845" lon="7.469814"><ele></ele><time>2014-6-19T4:33:1Z</time></trkpt>
<trkpt lat="46.120746" lon="7.469878"><ele></ele><time>2014-6-19T4:33:4Z</time></trkpt>
<trkpt lat="46.120557" lon="7.469606"><ele></ele><time>2014-6-19T4:33:7Z</time></trkpt>
<trkpt lat="46.120395" lon="7.469542"><ele></ele><time>2014-6-19T4:33:10Z</time></trkpt>
<trkpt lat="46.119963" lon="7.469360"><ele></ele><time>2014-6-19T4:33:13Z</time></trkpt>
<trkpt lat="46.119837" lon="7.468920"><ele></ele><time>2014-6-19T4:33:16Z</time></trkpt>
<trkpt lat="46.119594" lon="7.468713"><ele></ele><time>2014-6-19T4:33:19Z</time></trkpt>
<trkpt lat="46.119226" lon="7.468558"><ele></ele><time>2014-6-19T4:33:22Z</time></trkpt>
<trkpt lat="46.118641" lon="7.468273"><ele></ele><time>2014-6-19T4:33:25Z</time></trkpt>
<trkpt lat="46.118416" lon="7.468260"><ele></ele><time>2014-6-19T4:33:28Z</time></trkpt>
<trkpt lat="46.118209" lon="7.467962"><ele></ele><time>2014-6-19T4:33:31Z</time></trkpt>
<trkpt lat="46.118047" lon="7.468143"><ele></ele><time>2014-6-19T4:33:34Z</time></trkpt>
<trkpt lat="46.117984" lon="7.468725"><ele></ele><time>2014-6-19T4:33:37Z</time></trkpt>
<trkpt lat="46.117966" lon="7.469294"><ele></ele><time>2014-6-19T4:33:40Z</time></trkpt>
<trkpt lat="46.118452" lon="7.470459"><ele></ele><time>2014-6-19T4:33:43Z</time></trkpt>
<trkpt lat="46.118298" lon="7.471119"><ele></ele><time>2014-6-19T4:33:46Z</time></trkpt>
<trkpt lat="46.118352" lon="7.471636"><ele></ele><time>2014-6-19T4:33:49Z</time></trkpt>
<trkpt lat="46.118343" lon="7.472283"><ele></ele><time>2014-6-19T4:33:52Z</time></trkpt>
<trkpt lat="46.118478" lon="7.472917"><ele></ele><time>2014-6-19T4:33:55Z</time></trkpt>
<trkpt lat="46.118253" lon="7.473343"><ele></ele><time>2014-6-19T4:33:58Z</time></trkpt>
<trkpt lat="46.118208" lon="7.474301"><ele></ele><time>2014-6-19T4:34:1Z</time></trkpt>
<trkpt lat="46.118207" lon="7.474935"><ele></ele><time>2014-6-19T4:34:4Z</time></trkpt>
<trkpt lat="46.117973" lon="7.475284"><ele></ele><time>2014-6-19T4:34:7Z</time></trkpt>
<trkpt lat="46.118126" lon="7.476280"><ele></ele><time>2014-6-19T4:34:10Z</time></trkpt>
<trkpt lat="46.118261" lon="7.476642"><ele></ele><time>2014-6-19T4:34:13Z</time></trkpt>
<trkpt lat="46.118090" lon="7.477302"><ele></ele><time>2014-6-19T4:34:16Z</time></trkpt>
<trkpt lat="46.117937" lon="7.477728"><ele></ele><time>2014-6-19T4:34:19Z</time></trkpt>
<trkpt lat="46.117675" lon="7.478944"><ele></ele><time>2014-6-19T4:34:22Z</time></trkpt>
<trkpt lat="46.117432" lon="7.479371"><ele></ele><time>2014-6-19T4:34:25Z</time></trkpt>
<trkpt lat="46.117180" lon="7.479694"><ele></ele><time>2014-6-19T4:34:28Z</time></trkpt>
<trkpt lat="46.117135" lon="7.480328"><ele></ele><time>2014-6-19T4:34:31Z</time></trkpt>
<trkpt lat="46.117045" lon="7.480819"><ele></ele><time>2014-6-19T4:34:34Z</time></trkpt>
<trkpt lat="46.116802" lon="7.481298"><ele></ele><time>2014-6-19T4:34:37Z</time></trkpt>
<trkpt lat="46.116388" lon="7.482099"><ele></ele><time>2014-6-19T4:34:40Z</time></trkpt>
<trkpt lat="46.116352" lon="7.482306"><ele></ele><time>2014-6-19T4:34:43Z</time></trkpt>
<trkpt lat="46.115812" lon="7.482306"><ele></ele><time>2014-6-19T4:34:46Z</time></trkpt>
<trkpt lat="46.115497" lon="7.483315"><ele></ele><time>2014-6-19T4:34:49Z</time></trkpt>
<trkpt lat="46.115254" lon="7.483366"><ele></ele><time>2014-6-19T4:34:52Z</time></trkpt>
<trkpt lat="46.114633" lon="7.484530"><ele></ele><time>2014-6-19T4:34:55Z</time></trkpt>
<trkpt lat="46.114533" lon="7.485151"><ele></ele><time>2014-6-19T4:34:58Z</time></trkpt>
<trkpt lat="46.114371" lon="7.486237"><ele></ele><time>2014-6-19T4:35:1Z</time></trkpt>
<trkpt lat="46.114020" lon="7.486741"><ele></ele><time>2014-6-19T4:35:4Z</time></trkpt>
<trkpt lat="46.113858" lon="7.487284"><ele></ele><time>2014-6-19T4:35:7Z</time></trkpt>
<trkpt lat="46.113849" lon="7.487931"><ele></ele><time>2014-6-19T4:35:10Z</time></trkpt>
<trkpt lat="46.113417" lon="7.488370"><ele></ele><time>2014-6-19T4:35:13Z</time></trkpt>
<trkpt lat="46.113218" lon="7.488952"><ele></ele><time>2014-6-19T4:35:16Z</time></trkpt>
<trkpt lat="46.113416" lon="7.489340"><ele></ele><time>2014-6-19T4:35:19Z</time></trkpt>
<trkpt lat="46.113272" lon="7.489612"><ele></ele><time>2014-6-19T4:35:22Z</time></trkpt>
<trkpt lat="46.112849" lon="7.490349"><ele></ele><time>2014-6-19T4:35:25Z</time></trkpt>
<trkpt lat="46.112444" lon="7.491202"><ele></ele><time>2014-6-19T4:35:28Z</time></trkpt>
<trkpt lat="46.112624" lon="7.491422"><ele></ele><time>2014-6-19T4:35:31Z</time></trkpt>
<trkpt lat="46.112642" lon="7.491396"><ele></ele><time>2014-6-19T4:35:34Z</time></trkpt>
<trkpt lat="46.112921" lon="7.490970"><ele></ele><time>2014-6-19T4:35:37Z</time></trkpt>
<trkpt lat="46.113191" lon="7.490401"><ele></ele><time>2014-6-19T4:35:40Z</time></trkpt>
<trkpt lat="46.113344" lon="7.490297"><ele></ele><time>2014-6-19T4:35:43Z</time></trkpt>
<trkpt lat="46.113551" lon="7.490479"><ele></ele><time>2014-6-19T4:35:46Z</time></trkpt>
<trkpt lat="46.113622" lon="7.490919"><ele></ele><time>2014-6-19T4:35:49Z</time></trkpt>
<trkpt lat="46.113514" lon="7.491539"><ele></ele><time>2014-6-19T4:35:52Z</time></trkpt>
<trkpt lat="46.112749" lon="7.492496"><ele></ele><time>2014-6-19T4:35:55Z</time></trkpt>
<trkpt lat="46.112416" lon="7.493905"><ele></ele><time>2014-6-19T4:35:58Z</time></trkpt>
<trkpt lat="46.112208" lon="7.494332"><ele></ele><time>2014-6-19T4:36:1Z</time></trkpt>
<trkpt lat="46.111551" lon="7.495482"><ele></ele><time>2014-6-19T4:36:4Z</time></trkpt>
<trkpt lat="46.111119" lon="7.495909"><ele></ele><time>2014-6-19T4:36:7Z</time></trkpt>
<trkpt lat="46.110867" lon="7.496335"><ele></ele><time>2014-6-19T4:36:10Z</time></trkpt>
<trkpt lat="46.110345" lon="7.497214"><ele></ele><time>2014-6-19T4:36:13Z</time></trkpt>
<trkpt lat="46.110273" lon="7.497719"><ele></ele><time>2014-6-19T4:36:16Z</time></trkpt>
<trkpt lat="46.110443" lon="7.498391"><ele></ele><time>2014-6-19T4:36:19Z</time></trkpt>
<trkpt lat="46.110434" lon="7.498611"><ele></ele><time>2014-6-19T4:36:22Z</time></trkpt>
<trkpt lat="46.110146" lon="7.498999"><ele></ele><time>2014-6-19T4:36:25Z</time></trkpt>
<trkpt lat="46.109768" lon="7.499373"><ele></ele><time>2014-6-19T4:36:28Z</time></trkpt>
<trkpt lat="46.109399" lon="7.499502"><ele></ele><time>2014-6-19T4:36:31Z</time></trkpt>
<trkpt lat="46.109444" lon="7.499761"><ele></ele><time>2014-6-19T4:36:34Z</time></trkpt>
<trkpt lat="46.110263" lon="7.499258"><ele></ele><time>2014-6-19T4:36:37Z</time></trkpt>
<trkpt lat="46.111100" lon="7.498314"><ele></ele><time>2014-6-19T4:36:40Z</time></trkpt>
<trkpt lat="46.112144" lon="7.497307"><ele></ele><time>2014-6-19T4:36:43Z</time></trkpt>
<trkpt lat="46.112846" lon="7.495704"><ele></ele><time>2014-6-19T4:36:46Z</time></trkpt>
<trkpt lat="46.113171" lon="7.495057"><ele></ele><time>2014-6-19T4:36:49Z</time></trkpt>
<trkpt lat="46.113378" lon="7.494294"><ele></ele><time>2014-6-19T4:36:52Z</time></trkpt>
<trkpt lat="46.114044" lon="7.493040"><ele></ele><time>2014-6-19T4:36:55Z</time></trkpt>
<trkpt lat="46.115250" lon="7.491256"><ele></ele><time>2014-6-19T4:36:58Z</time></trkpt>
<trkpt lat="46.115475" lon="7.490882"><ele></ele><time>2014-6-19T4:37:1Z</time></trkpt>
<trkpt lat="46.115646" lon="7.490998"><ele></ele><time>2014-6-19T4:37:4Z</time></trkpt>
<trkpt lat="46.115997" lon="7.491387"><ele></ele><time>2014-6-19T4:37:7Z</time></trkpt>
<trkpt lat="46.116708" lon="7.490585"><ele></ele><time>2014-6-19T4:37:10Z</time></trkpt>
<trkpt lat="46.117113" lon="7.490327"><ele></ele><time>2014-6-19T4:37:13Z</time></trkpt>
<trkpt lat="46.118211" lon="7.489811"><ele></ele><time>2014-6-19T4:37:16Z</time></trkpt>
<trkpt lat="46.118462" lon="7.489966"><ele></ele><time>2014-6-19T4:37:19Z</time></trkpt>
<trkpt lat="46.119713" lon="7.489527"><ele></ele><time>2014-6-19T4:37:22Z</time></trkpt>
<trkpt lat="46.120064" lon="7.489191"><ele></ele><time>2014-6-19T4:37:25Z</time></trkpt>
<trkpt lat="46.120289" lon="7.489243"><ele></ele><time>2014-6-19T4:37:28Z</time></trkpt>
<trkpt lat="46.119974" lon="7.489670"><ele></ele><time>2014-6-19T4:37:31Z</time></trkpt>
<trkpt lat="46.119713" lon="7.490291"><ele></ele><time>2014-6-19T4:37:34Z</time></trkpt>
<trkpt lat="46.119587" lon="7.490614"><ele></ele><time>2014-6-19T4:37:37Z</time></trkpt>
<trkpt lat="46.119218" lon="7.490795"><ele></ele><time>2014-6-19T4:37:40Z</time></trkpt>
<trkpt lat="46.118336" lon="7.491880"><ele></ele><time>2014-6-19T4:37:43Z</time></trkpt>
<trkpt lat="46.117642" lon="7.492811"><ele></ele><time>2014-6-19T4:37:46Z</time></trkpt>
<trkpt lat="46.117435" lon="7.493794"><ele></ele><time>2014-6-19T4:37:49Z</time></trkpt>
<trkpt lat="46.117525" lon="7.493962"><ele></ele><time>2014-6-19T4:37:52Z</time></trkpt>
<trkpt lat="46.117768" lon="7.493458"><ele></ele><time>2014-6-19T4:37:55Z</time></trkpt>
<trkpt lat="46.117867" lon="7.493277"><ele></ele><time>2014-6-19T4:37:58Z</time></trkpt>
<trkpt lat="46.118137" lon="7.493161"><ele></ele><time>2014-6-19T4:38:1Z</time></trkpt>
<trkpt lat="46.118632" lon="7.493122"><ele></ele><time>2014-6-19T4:38:4Z</time></trkpt>
<trkpt lat="46.119757" lon="7.492593"><ele></ele><time>2014-6-19T4:38:7Z</time></trkpt>
<trkpt lat="46.120036" lon="7.492154"><ele></ele><time>2014-6-19T4:38:10Z</time></trkpt>
<trkpt lat="46.120198" lon="7.491805"><ele></ele><time>2014-6-19T4:38:13Z</time></trkpt>
<trkpt lat="46.120288" lon="7.491662"><ele></ele><time>2014-6-19T4:38:16Z</time></trkpt>
<trkpt lat="46.120971" lon="7.491417"><ele></ele><time>2014-6-19T4:38:19Z</time></trkpt>
<trkpt lat="46.121574" lon="7.490926"><ele></ele><time>2014-6-19T4:38:22Z</time></trkpt>
<trkpt lat="46.122375" lon="7.490629"><ele></ele><time>2014-6-19T4:38:25Z</time></trkpt>
<trkpt lat="46.122654" lon="7.490811"><ele></ele><time>2014-6-19T4:38:28Z</time></trkpt>
<trkpt lat="46.123563" lon="7.490669"><ele></ele><time>2014-6-19T4:38:31Z</time></trkpt>
<trkpt lat="46.123707" lon="7.490411"><ele></ele><time>2014-6-19T4:38:34Z</time></trkpt>
<trkpt lat="46.123419" lon="7.489440"><ele></ele><time>2014-6-19T4:38:37Z</time></trkpt>
<trkpt lat="46.123419" lon="7.488897"><ele></ele><time>2014-6-19T4:38:40Z</time></trkpt>
<trkpt lat="46.123564" lon="7.487707"><ele></ele><time>2014-6-19T4:38:43Z</time></trkpt>
<trkpt lat="46.123807" lon="7.487008"><ele></ele><time>2014-6-19T4:38:46Z</time></trkpt>
<trkpt lat="46.123960" lon="7.487151"><ele></ele><time>2014-6-19T4:38:49Z</time></trkpt>
<trkpt lat="46.124158" lon="7.487177"><ele></ele><time>2014-6-19T4:38:52Z</time></trkpt>
<trkpt lat="46.124500" lon="7.487203"><ele></ele><time>2014-6-19T4:38:55Z</time></trkpt>
<trkpt lat="46.124374" lon="7.487319"><ele></ele><time>2014-6-19T4:38:58Z</time></trkpt>
<trkpt lat="46.124149" lon="7.487384"><ele></ele><time>2014-6-19T4:39:1Z</time></trkpt>
<trkpt lat="46.123924" lon="7.487552"><ele></ele><time>2014-6-19T4:39:4Z</time></trkpt>
<trkpt lat="46.123843" lon="7.488043"><ele></ele><time>2014-6-19T4:39:7Z</time></trkpt>
<trkpt lat="46.123833" lon="7.488535"><ele></ele><time>2014-6-19T4:39:10Z</time></trkpt>
<trkpt lat="46.123914" lon="7.488897"><ele></ele><time>2014-6-19T4:39:13Z</time></trkpt>
<trkpt lat="46.124220" lon="7.489389"><ele></ele><time>2014-6-19T4:39:16Z</time></trkpt>
<trkpt lat="46.124363" lon="7.489959"><ele></ele><time>2014-6-19T4:39:19Z</time></trkpt>
<trkpt lat="46.124741" lon="7.490787"><ele></ele><time>2014-6-19T4:39:22Z</time></trkpt>
<trkpt lat="46.124849" lon="7.490619"><ele></ele><time>2014-6-19T4:39:25Z</time></trkpt>
<trkpt lat="46.124643" lon="7.489364"><ele></ele><time>2014-6-19T4:39:28Z</time></trkpt>
<trkpt lat="46.124445" lon="7.488833"><ele></ele><time>2014-6-19T4:39:31Z</time></trkpt>
<trkpt lat="46.124697" lon="7.488251"><ele></ele><time>2014-6-19T4:39:34Z</time></trkpt>
<trkpt lat="46.124850" lon="7.488238"><ele></ele><time>2014-6-19T4:39:37Z</time></trkpt>
<trkpt lat="46.124679" lon="7.488523"><ele></ele><time>2014-6-19T4:39:40Z</time></trkpt>
<trkpt lat="46.124697" lon="7.488756"><ele></ele><time>2014-6-19T4:39:43Z</time></trkpt>
<trkpt lat="46.124823" lon="7.488484"><ele></ele><time>2014-6-19T4:39:46Z</time></trkpt>
<trkpt lat="46.125147" lon="7.488045"><ele></ele><time>2014-6-19T4:39:49Z</time></trkpt>
<trkpt lat="46.125687" lon="7.487502"><ele></ele><time>2014-6-19T4:39:52Z</time></trkpt>
<trkpt lat="46.126101" lon="7.487528"><ele></ele><time>2014-6-19T4:39:55Z</time></trkpt>
<trkpt lat="46.126470" lon="7.486791"><ele></ele><time>2014-6-19T4:39:58Z</time></trkpt>
<trkpt lat="46.126938" lon="7.486313"><ele></ele><time>2014-6-19T4:40:1Z</time></trkpt>
<trkpt lat="46.127514" lon="7.486223"><ele></ele><time>2014-6-19T4:40:4Z</time></trkpt>
<trkpt lat="46.127712" lon="7.485692"><ele></ele><time>2014-6-19T4:40:7Z</time></trkpt>
<trkpt lat="46.127811" lon="7.485071"><ele></ele><time>2014-6-19T4:40:10Z</time></trkpt>
<trkpt lat="46.128099" lon="7.484670"><ele></ele><time>2014-6-19T4:40:13Z</time></trkpt>
<trkpt lat="46.128369" lon="7.484373"><ele></ele><time>2014-6-19T4:40:16Z</time></trkpt>
<trkpt lat="46.128441" lon="7.484011"><ele></ele><time>2014-6-19T4:40:19Z</time></trkpt>
<trkpt lat="46.128360" lon="7.483778"><ele></ele><time>2014-6-19T4:40:22Z</time></trkpt>
<trkpt lat="46.128756" lon="7.483455"><ele></ele><time>2014-6-19T4:40:25Z</time></trkpt>
<trkpt lat="46.128999" lon="7.482976"><ele></ele><time>2014-6-19T4:40:28Z</time></trkpt>
<trkpt lat="46.129206" lon="7.482355"><ele></ele><time>2014-6-19T4:40:31Z</time></trkpt>
<trkpt lat="46.129350" lon="7.482291"><ele></ele><time>2014-6-19T4:40:34Z</time></trkpt>
<trkpt lat="46.129107" lon="7.483015"><ele></ele><time>2014-6-19T4:40:37Z</time></trkpt>
<trkpt lat="46.129313" lon="7.484193"><ele></ele><time>2014-6-19T4:40:40Z</time></trkpt>
<trkpt lat="46.129313" lon="7.484969"><ele></ele><time>2014-6-19T4:40:43Z</time></trkpt>
<trkpt lat="46.129214" lon="7.485292"><ele></ele><time>2014-6-19T4:40:46Z</time></trkpt>
<trkpt lat="46.129349" lon="7.485383"><ele></ele><time>2014-6-19T4:40:49Z</time></trkpt>
<trkpt lat="46.129646" lon="7.484542"><ele></ele><time>2014-6-19T4:40:52Z</time></trkpt>
<trkpt lat="46.129853" lon="7.483779"><ele></ele><time>2014-6-19T4:40:55Z</time></trkpt>
<trkpt lat="46.130258" lon="7.483249"><ele></ele><time>2014-6-19T4:40:58Z</time></trkpt>
<trkpt lat="46.130465" lon="7.482861"><ele></ele><time>2014-6-19T4:41:1Z</time></trkpt>
<trkpt lat="46.130790" lon="7.482150"><ele></ele><time>2014-6-19T4:41:4Z</time></trkpt>
<trkpt lat="46.130772" lon="7.482150"><ele></ele><time>2014-6-19T4:41:7Z</time></trkpt>
<trkpt lat="46.130942" lon="7.482279"><ele></ele><time>2014-6-19T4:41:10Z</time></trkpt>
<trkpt lat="46.131815" lon="7.481918"><ele></ele><time>2014-6-19T4:41:13Z</time></trkpt>
<trkpt lat="46.132382" lon="7.481905"><ele></ele><time>2014-6-19T4:41:16Z</time></trkpt>
<trkpt lat="46.132769" lon="7.481828"><ele></ele><time>2014-6-19T4:41:19Z</time></trkpt>
<trkpt lat="46.133228" lon="7.481595"><ele></ele><time>2014-6-19T4:41:22Z</time></trkpt>
<trkpt lat="46.133902" lon="7.481285"><ele></ele><time>2014-6-19T4:41:25Z</time></trkpt>
<trkpt lat="46.133884" lon="7.480897"><ele></ele><time>2014-6-19T4:41:28Z</time></trkpt>
<trkpt lat="46.134712" lon="7.480018"><ele></ele><time>2014-6-19T4:41:31Z</time></trkpt>
<trkpt lat="46.135117" lon="7.479565"><ele></ele><time>2014-6-19T4:41:34Z</time></trkpt>
<trkpt lat="46.135945" lon="7.479359"><ele></ele><time>2014-6-19T4:41:37Z</time></trkpt>
<trkpt lat="46.136359" lon="7.479476"><ele></ele><time>2014-6-19T4:41:40Z</time></trkpt>
<trkpt lat="46.136962" lon="7.479191"><ele></ele><time>2014-6-19T4:41:43Z</time></trkpt>
<trkpt lat="46.137654" lon="7.479153"><ele></ele><time>2014-6-19T4:41:46Z</time></trkpt>
<trkpt lat="46.138257" lon="7.478662"><ele></ele><time>2014-6-19T4:41:49Z</time></trkpt>
<trkpt lat="46.138374" lon="7.478364"><ele></ele><time>2014-6-19T4:41:52Z</time></trkpt>
<trkpt lat="46.138707" lon="7.478119"><ele></ele><time>2014-6-19T4:41:55Z</time></trkpt>
<trkpt lat="46.139328" lon="7.477524"><ele></ele><time>2014-6-19T4:41:58Z</time></trkpt>
<trkpt lat="46.138608" lon="7.477911"><ele></ele><time>2014-6-19T4:42:1Z</time></trkpt>
<trkpt lat="46.138086" lon="7.477937"><ele></ele><time>2014-6-19T4:42:4Z</time></trkpt>
<trkpt lat="46.138653" lon="7.477497"><ele></ele><time>2014-6-19T4:42:7Z</time></trkpt>
<trkpt lat="46.139076" lon="7.476644"><ele></ele><time>2014-6-19T4:42:10Z</time></trkpt>
<trkpt lat="46.139436" lon="7.476398"><ele></ele><time>2014-6-19T4:42:13Z</time></trkpt>
<trkpt lat="46.139805" lon="7.475984"><ele></ele><time>2014-6-19T4:42:16Z</time></trkpt>
<trkpt lat="46.140768" lon="7.474497"><ele></ele><time>2014-6-19T4:42:19Z</time></trkpt>
<trkpt lat="46.141389" lon="7.474497"><ele></ele><time>2014-6-19T4:42:22Z</time></trkpt>
<trkpt lat="46.141803" lon="7.474122"><ele></ele><time>2014-6-19T4:42:25Z</time></trkpt>
<trkpt lat="46.142262" lon="7.473993"><ele></ele><time>2014-6-19T4:42:28Z</time></trkpt>
<trkpt lat="46.143080" lon="7.473372"><ele></ele><time>2014-6-19T4:42:31Z</time></trkpt>
<trkpt lat="46.143638" lon="7.472467"><ele></ele><time>2014-6-19T4:42:34Z</time></trkpt>
<trkpt lat="46.144070" lon="7.471962"><ele></ele><time>2014-6-19T4:42:37Z</time></trkpt>
<trkpt lat="46.144349" lon="7.471548"><ele></ele><time>2014-6-19T4:42:40Z</time></trkpt>
<trkpt lat="46.145096" lon="7.470927"><ele></ele><time>2014-6-19T4:42:43Z</time></trkpt>
<trkpt lat="46.145429" lon="7.470384"><ele></ele><time>2014-6-19T4:42:46Z</time></trkpt>
<trkpt lat="46.145555" lon="7.470294"><ele></ele><time>2014-6-19T4:42:49Z</time></trkpt>
<trkpt lat="46.145960" lon="7.470656"><ele></ele><time>2014-6-19T4:42:52Z</time></trkpt>
<trkpt lat="46.145987" lon="7.470397"><ele></ele><time>2014-6-19T4:42:55Z</time></trkpt>
<trkpt lat="46.146104" lon="7.470540"><ele></ele><time>2014-6-19T4:42:58Z</time></trkpt>
<trkpt lat="46.146706" lon="7.471343"><ele></ele><time>2014-6-19T4:43:1Z</time></trkpt>
<trkpt lat="46.146850" lon="7.471097"><ele></ele><time>2014-6-19T4:43:4Z</time></trkpt>
<trkpt lat="46.147093" lon="7.471640"><ele></ele><time>2014-6-19T4:43:7Z</time></trkpt>
<trkpt lat="46.147345" lon="7.470773"><ele></ele><time>2014-6-19T4:43:10Z</time></trkpt>
<trkpt lat="46.147570" lon="7.470152"><ele></ele><time>2014-6-19T4:43:13Z</time></trkpt>
<trkpt lat="46.147885" lon="7.469596"><ele></ele><time>2014-6-19T4:43:16Z</time></trkpt>
<trkpt lat="46.148290" lon="7.469079"><ele></ele><time>2014-6-19T4:43:19Z</time></trkpt>
<trkpt lat="46.148416" lon="7.468470"><ele></ele><time>2014-6-19T4:43:22Z</time></trkpt>
<trkpt lat="46.148524" lon="7.468263"><ele></ele><time>2014-6-19T4:43:25Z</time></trkpt>
<trkpt lat="46.148803" lon="7.467875"><ele></ele><time>2014-6-19T4:43:28Z</time></trkpt>
<trkpt lat="46.148893" lon="7.467280"><ele></ele><time>2014-6-19T4:43:31Z</time></trkpt>
<trkpt lat="46.149118" lon="7.466866"><ele></ele><time>2014-6-19T4:43:34Z</time></trkpt>
<trkpt lat="46.149343" lon="7.466685"><ele></ele><time>2014-6-19T4:43:37Z</time></trkpt>
<trkpt lat="46.149298" lon="7.467837"><ele></ele><time>2014-6-19T4:43:40Z</time></trkpt>
<trkpt lat="46.149549" lon="7.469791"><ele></ele><time>2014-6-19T4:43:43Z</time></trkpt>
<trkpt lat="46.149342" lon="7.471914"><ele></ele><time>2014-6-19T4:43:46Z</time></trkpt>
<trkpt lat="46.150044" lon="7.471099"><ele></ele><time>2014-6-19T4:43:49Z</time></trkpt>
<trkpt lat="46.150314" lon="7.470840"><ele></ele><time>2014-6-19T4:43:52Z</time></trkpt>
<trkpt lat="46.150431" lon="7.470516"><ele></ele><time>2014-6-19T4:43:55Z</time></trkpt>
<trkpt lat="46.150449" lon="7.469856"><ele></ele><time>2014-6-19T4:43:58Z</time></trkpt>
<trkpt lat="46.150602" lon="7.469585"><ele></ele><time>2014-6-19T4:44:1Z</time></trkpt>
<trkpt lat="46.150971" lon="7.469585"><ele></ele><time>2014-6-19T4:44:4Z</time></trkpt>
<trkpt lat="46.151339" lon="7.469533"><ele></ele><time>2014-6-19T4:44:7Z</time></trkpt>
<trkpt lat="46.151546" lon="7.469443"><ele></ele><time>2014-6-19T4:44:10Z</time></trkpt>
<trkpt lat="46.152023" lon="7.469262"><ele></ele><time>2014-6-19T4:44:13Z</time></trkpt>
<trkpt lat="46.152248" lon="7.469171"><ele></ele><time>2014-6-19T4:44:16Z</time></trkpt>
<trkpt lat="46.152410" lon="7.468938"><ele></ele><time>2014-6-19T4:44:19Z</time></trkpt>
<trkpt lat="46.152563" lon="7.468498"><ele></ele><time>2014-6-19T4:44:22Z</time></trkpt>
<trkpt lat="46.152743" lon="7.468046"><ele></ele><time>2014-6-19T4:44:25Z</time></trkpt>
<trkpt lat="46.152806" lon="7.468227"><ele></ele><time>2014-6-19T4:44:28Z</time></trkpt>
<trkpt lat="46.153256" lon="7.467968"><ele></ele><time>2014-6-19T4:44:31Z</time></trkpt>
<trkpt lat="46.153409" lon="7.467696"><ele></ele><time>2014-6-19T4:44:34Z</time></trkpt>
<trkpt lat="46.153544" lon="7.467541"><ele></ele><time>2014-6-19T4:44:37Z</time></trkpt>
<trkpt lat="46.153607" lon="7.467166"><ele></ele><time>2014-6-19T4:44:40Z</time></trkpt>
<trkpt lat="46.153571" lon="7.466868"><ele></ele><time>2014-6-19T4:44:43Z</time></trkpt>
<trkpt lat="46.153688" lon="7.466661"><ele></ele><time>2014-6-19T4:44:46Z</time></trkpt>
<trkpt lat="46.153904" lon="7.466571"><ele></ele><time>2014-6-19T4:44:49Z</time></trkpt>
<trkpt lat="46.154192" lon="7.466532"><ele></ele><time>2014-6-19T4:44:52Z</time></trkpt>
<trkpt lat="46.154255" lon="7.466325"><ele></ele><time>2014-6-19T4:44:55Z</time></trkpt>
<trkpt lat="46.154372" lon="7.465885"><ele></ele><time>2014-6-19T4:44:58Z</time></trkpt>
<trkpt lat="46.154624" lon="7.465975"><ele></ele><time>2014-6-19T4:45:1Z</time></trkpt>
<trkpt lat="46.154894" lon="7.465950"><ele></ele><time>2014-6-19T4:45:4Z</time></trkpt>
<trkpt lat="46.155218" lon="7.465471"><ele></ele><time>2014-6-19T4:45:7Z</time></trkpt>
<trkpt lat="46.155712" lon="7.465290"><ele></ele><time>2014-6-19T4:45:10Z</time></trkpt>
<trkpt lat="46.155982" lon="7.464941"><ele></ele><time>2014-6-19T4:45:13Z</time></trkpt>
<trkpt lat="46.156099" lon="7.464824"><ele></ele><time>2014-6-19T4:45:16Z</time></trkpt>
<trkpt lat="46.156450" lon="7.464669"><ele></ele><time>2014-6-19T4:45:19Z</time></trkpt>
<trkpt lat="46.156576" lon="7.464553"><ele></ele><time>2014-6-19T4:45:22Z</time></trkpt>
<trkpt lat="46.156702" lon="7.464345"><ele></ele><time>2014-6-19T4:45:25Z</time></trkpt>
<trkpt lat="46.157197" lon="7.464048"><ele></ele><time>2014-6-19T4:45:28Z</time></trkpt>
<trkpt lat="46.157467" lon="7.464411"><ele></ele><time>2014-6-19T4:45:31Z</time></trkpt>
<trkpt lat="46.157791" lon="7.464411"><ele></ele><time>2014-6-19T4:45:34Z</time></trkpt>
<trkpt lat="46.157934" lon="7.464553"><ele></ele><time>2014-6-19T4:45:37Z</time></trkpt>
<trkpt lat="46.158150" lon="7.464592"><ele></ele><time>2014-6-19T4:45:40Z</time></trkpt>
<trkpt lat="46.158393" lon="7.464553"><ele></ele><time>2014-6-19T4:45:43Z</time></trkpt>
<trkpt lat="46.158501" lon="7.464709"><ele></ele><time>2014-6-19T4:45:46Z</time></trkpt>
<trkpt lat="46.158681" lon="7.464825"><ele></ele><time>2014-6-19T4:45:49Z</time></trkpt>
<trkpt lat="46.158924" lon="7.464592"><ele></ele><time>2014-6-19T4:45:52Z</time></trkpt>
<trkpt lat="46.158843" lon="7.464968"><ele></ele><time>2014-6-19T4:45:55Z</time></trkpt>
<trkpt lat="46.158744" lon="7.465291"><ele></ele><time>2014-6-19T4:45:58Z</time></trkpt>
<trkpt lat="46.158600" lon="7.465563"><ele></ele><time>2014-6-19T4:46:1Z</time></trkpt>
<trkpt lat="46.158375" lon="7.465861"><ele></ele><time>2014-6-19T4:46:4Z</time></trkpt>
<trkpt lat="46.157790" lon="7.466184"><ele></ele><time>2014-6-19T4:46:7Z</time></trkpt>
<trkpt lat="46.157583" lon="7.466365"><ele></ele><time>2014-6-19T4:46:10Z</time></trkpt>
<trkpt lat="46.157466" lon="7.466572"><ele></ele><time>2014-6-19T4:46:13Z</time></trkpt>
<trkpt lat="46.157376" lon="7.466961"><ele></ele><time>2014-6-19T4:46:16Z</time></trkpt>
<trkpt lat="46.157304" lon="7.467375"><ele></ele><time>2014-6-19T4:46:19Z</time></trkpt>
<trkpt lat="46.157385" lon="7.467699"><ele></ele><time>2014-6-19T4:46:22Z</time></trkpt>
<trkpt lat="46.157484" lon="7.467789"><ele></ele><time>2014-6-19T4:46:25Z</time></trkpt>
<trkpt lat="46.157502" lon="7.467077"><ele></ele><time>2014-6-19T4:46:28Z</time></trkpt>
<trkpt lat="46.157628" lon="7.466922"><ele></ele><time>2014-6-19T4:46:31Z</time></trkpt>
<trkpt lat="46.157790" lon="7.466728"><ele></ele><time>2014-6-19T4:46:34Z</time></trkpt>
<trkpt lat="46.158186" lon="7.466521"><ele></ele><time>2014-6-19T4:46:37Z</time></trkpt>
<trkpt lat="46.159481" lon="7.466599"><ele></ele><time>2014-6-19T4:46:40Z</time></trkpt>
<trkpt lat="46.159670" lon="7.466043"><ele></ele><time>2014-6-19T4:46:43Z</time></trkpt>
<trkpt lat="46.159976" lon="7.465952"><ele></ele><time>2014-6-19T4:46:46Z</time></trkpt>
<trkpt lat="46.160678" lon="7.465564"><ele></ele><time>2014-6-19T4:46:49Z</time></trkpt>
<trkpt lat="46.160714" lon="7.465720"><ele></ele><time>2014-6-19T4:46:52Z</time></trkpt>
<trkpt lat="46.160498" lon="7.465862"><ele></ele><time>2014-6-19T4:46:55Z</time></trkpt>
<trkpt lat="46.160390" lon="7.466043"><ele></ele><time>2014-6-19T4:46:58Z</time></trkpt>
<trkpt lat="46.160291" lon="7.466224"><ele></ele><time>2014-6-19T4:47:1Z</time></trkpt>
<trkpt lat="46.160102" lon="7.466341"><ele></ele><time>2014-6-19T4:47:4Z</time></trkpt>
<trkpt lat="46.159931" lon="7.466509"><ele></ele><time>2014-6-19T4:47:7Z</time></trkpt>
<trkpt lat="46.159850" lon="7.467078"><ele></ele><time>2014-6-19T4:47:10Z</time></trkpt>
<trkpt lat="46.159607" lon="7.467311"><ele></ele><time>2014-6-19T4:47:13Z</time></trkpt>
<trkpt lat="46.159292" lon="7.467531"><ele></ele><time>2014-6-19T4:47:16Z</time></trkpt>
<trkpt lat="46.159085" lon="7.467790"><ele></ele><time>2014-6-19T4:47:19Z</time></trkpt>
<trkpt lat="46.158842" lon="7.467816"><ele></ele><time>2014-6-19T4:47:22Z</time></trkpt>
<trkpt lat="46.158797" lon="7.468023"><ele></ele><time>2014-6-19T4:47:25Z</time></trkpt>
<trkpt lat="46.158806" lon="7.468502"><ele></ele><time>2014-6-19T4:47:28Z</time></trkpt>
<trkpt lat="46.158797" lon="7.469071"><ele></ele><time>2014-6-19T4:47:31Z</time></trkpt>
<trkpt lat="46.158491" lon="7.469809"><ele></ele><time>2014-6-19T4:47:34Z</time></trkpt>
<trkpt lat="46.157888" lon="7.469861"><ele></ele><time>2014-6-19T4:47:37Z</time></trkpt>
<trkpt lat="46.157681" lon="7.470132"><ele></ele><time>2014-6-19T4:47:40Z</time></trkpt>
<trkpt lat="46.157402" lon="7.470223"><ele></ele><time>2014-6-19T4:47:43Z</time></trkpt>
<trkpt lat="46.156862" lon="7.471025"><ele></ele><time>2014-6-19T4:47:46Z</time></trkpt>
<trkpt lat="46.156691" lon="7.471232"><ele></ele><time>2014-6-19T4:47:49Z</time></trkpt>
<trkpt lat="46.156448" lon="7.472216"><ele></ele><time>2014-6-19T4:47:52Z</time></trkpt>
<trkpt lat="46.155971" lon="7.472513"><ele></ele><time>2014-6-19T4:47:55Z</time></trkpt>
<trkpt lat="46.155629" lon="7.473070"><ele></ele><time>2014-6-19T4:47:58Z</time></trkpt>
<trkpt lat="46.155458" lon="7.473898"><ele></ele><time>2014-6-19T4:48:1Z</time></trkpt>
<trkpt lat="46.155314" lon="7.474170"><ele></ele><time>2014-6-19T4:48:4Z</time></trkpt>
<trkpt lat="46.155008" lon="7.474169"><ele></ele><time>2014-6-19T4:48:7Z</time></trkpt>
<trkpt lat="46.154549" lon="7.474221"><ele></ele><time>2014-6-19T4:48:10Z</time></trkpt>
<trkpt lat="46.154513" lon="7.474493"><ele></ele><time>2014-6-19T4:48:13Z</time></trkpt>
<trkpt lat="46.154801" lon="7.474325"><ele></ele><time>2014-6-19T4:48:16Z</time></trkpt>
<trkpt lat="46.155251" lon="7.474377"><ele></ele><time>2014-6-19T4:48:19Z</time></trkpt>
<trkpt lat="46.155476" lon="7.474377"><ele></ele><time>2014-6-19T4:48:22Z</time></trkpt>
<trkpt lat="46.155845" lon="7.473820"><ele></ele><time>2014-6-19T4:48:25Z</time></trkpt>
<trkpt lat="46.155980" lon="7.473393"><ele></ele><time>2014-6-19T4:48:28Z</time></trkpt>
<trkpt lat="46.156268" lon="7.473225"><ele></ele><time>2014-6-19T4:48:31Z</time></trkpt>
<trkpt lat="46.156547" lon="7.473225"><ele></ele><time>2014-6-19T4:48:34Z</time></trkpt>
<trkpt lat="46.156880" lon="7.473096"><ele></ele><time>2014-6-19T4:48:37Z</time></trkpt>
<trkpt lat="46.157114" lon="7.472721"><ele></ele><time>2014-6-19T4:48:40Z</time></trkpt>
<trkpt lat="46.157312" lon="7.471970"><ele></ele><time>2014-6-19T4:48:43Z</time></trkpt>
<trkpt lat="46.157564" lon="7.471893"><ele></ele><time>2014-6-19T4:48:46Z</time></trkpt>
<trkpt lat="46.157833" lon="7.472152"><ele></ele><time>2014-6-19T4:48:49Z</time></trkpt>
<trkpt lat="46.158247" lon="7.472036"><ele></ele><time>2014-6-19T4:48:52Z</time></trkpt>
<trkpt lat="46.158526" lon="7.471997"><ele></ele><time>2014-6-19T4:48:55Z</time></trkpt>
<trkpt lat="46.159066" lon="7.472360"><ele></ele><time>2014-6-19T4:48:58Z</time></trkpt>
<trkpt lat="46.159372" lon="7.472308"><ele></ele><time>2014-6-19T4:49:1Z</time></trkpt>
<trkpt lat="46.159624" lon="7.472088"><ele></ele><time>2014-6-19T4:49:4Z</time></trkpt>
<trkpt lat="46.159831" lon="7.471972"><ele></ele><time>2014-6-19T4:49:7Z</time></trkpt>
<trkpt lat="46.160082" lon="7.471920"><ele></ele><time>2014-6-19T4:49:10Z</time></trkpt>
<trkpt lat="46.160244" lon="7.471946"><ele></ele><time>2014-6-19T4:49:13Z</time></trkpt>
<trkpt lat="46.160433" lon="7.471791"><ele></ele><time>2014-6-19T4:49:16Z</time></trkpt>
<trkpt lat="46.160487" lon="7.471416"><ele></ele><time>2014-6-19T4:49:19Z</time></trkpt>
<trkpt lat="46.160595" lon="7.471079"><ele></ele><time>2014-6-19T4:49:22Z</time></trkpt>
<trkpt lat="46.160901" lon="7.470911"><ele></ele><time>2014-6-19T4:49:25Z</time></trkpt>
<trkpt lat="46.161270" lon="7.470963"><ele></ele><time>2014-6-19T4:49:28Z</time></trkpt>
<trkpt lat="46.161423" lon="7.470795"><ele></ele><time>2014-6-19T4:49:31Z</time></trkpt>
<trkpt lat="46.161999" lon="7.470704"><ele></ele><time>2014-6-19T4:49:34Z</time></trkpt>
<trkpt lat="46.162143" lon="7.470497"><ele></ele><time>2014-6-19T4:49:37Z</time></trkpt>
<trkpt lat="46.162485" lon="7.470433"><ele></ele><time>2014-6-19T4:49:40Z</time></trkpt>
<trkpt lat="46.162818" lon="7.470161"><ele></ele><time>2014-6-19T4:49:43Z</time></trkpt>
<trkpt lat="46.163357" lon="7.469812"><ele></ele><time>2014-6-19T4:49:46Z</time></trkpt>
<trkpt lat="46.163780" lon="7.469631"><ele></ele><time>2014-6-19T4:49:49Z</time></trkpt>
<trkpt lat="46.164194" lon="7.469450"><ele></ele><time>2014-6-19T4:49:52Z</time></trkpt>
<trkpt lat="46.164626" lon="7.469450"><ele></ele><time>2014-6-19T4:49:55Z</time></trkpt>
<trkpt lat="46.165130" lon="7.469567"><ele></ele><time>2014-6-19T4:49:58Z</time></trkpt>
<trkpt lat="46.164545" lon="7.469813"><ele></ele><time>2014-6-19T4:50:1Z</time></trkpt>
<trkpt lat="46.164347" lon="7.469968"><ele></ele><time>2014-6-19T4:50:4Z</time></trkpt>
<trkpt lat="46.163924" lon="7.470434"><ele></ele><time>2014-6-19T4:50:7Z</time></trkpt>
<trkpt lat="46.163618" lon="7.470887"><ele></ele><time>2014-6-19T4:50:10Z</time></trkpt>
<trkpt lat="46.163222" lon="7.471081"><ele></ele><time>2014-6-19T4:50:13Z</time></trkpt>
<trkpt lat="46.162961" lon="7.471508"><ele></ele><time>2014-6-19T4:50:16Z</time></trkpt>
<trkpt lat="46.162646" lon="7.471999"><ele></ele><time>2014-6-19T4:50:19Z</time></trkpt>
<trkpt lat="46.162259" lon="7.472569"><ele></ele><time>2014-6-19T4:50:22Z</time></trkpt>
<trkpt lat="46.161926" lon="7.473423"><ele></ele><time>2014-6-19T4:50:25Z</time></trkpt>
<trkpt lat="46.161170" lon="7.473759"><ele></ele><time>2014-6-19T4:50:28Z</time></trkpt>
<trkpt lat="46.160792" lon="7.474199"><ele></ele><time>2014-6-19T4:50:31Z</time></trkpt>
<trkpt lat="46.160378" lon="7.475092"><ele></ele><time>2014-6-19T4:50:34Z</time></trkpt>
<trkpt lat="46.160135" lon="7.475739"><ele></ele><time>2014-6-19T4:50:37Z</time></trkpt>
<trkpt lat="46.159991" lon="7.476516"><ele></ele><time>2014-6-19T4:50:40Z</time></trkpt>
<trkpt lat="46.159766" lon="7.476567"><ele></ele><time>2014-6-19T4:50:43Z</time></trkpt>
<trkpt lat="46.159433" lon="7.476425"><ele></ele><time>2014-6-19T4:50:46Z</time></trkpt>
<trkpt lat="46.159128" lon="7.476256"><ele></ele><time>2014-6-19T4:50:49Z</time></trkpt>
<trkpt lat="46.158480" lon="7.476541"><ele></ele><time>2014-6-19T4:50:52Z</time></trkpt>
<trkpt lat="46.157931" lon="7.476929"><ele></ele><time>2014-6-19T4:50:55Z</time></trkpt>
<trkpt lat="46.157787" lon="7.477084"><ele></ele><time>2014-6-19T4:50:58Z</time></trkpt>
<trkpt lat="46.157805" lon="7.477576"><ele></ele><time>2014-6-19T4:51:1Z</time></trkpt>
<trkpt lat="46.157679" lon="7.478029"><ele></ele><time>2014-6-19T4:51:4Z</time></trkpt>
<trkpt lat="46.157508" lon="7.478598"><ele></ele><time>2014-6-19T4:51:7Z</time></trkpt>
<trkpt lat="46.157039" lon="7.479685"><ele></ele><time>2014-6-19T4:51:10Z</time></trkpt>
<trkpt lat="46.156751" lon="7.479931"><ele></ele><time>2014-6-19T4:51:13Z</time></trkpt>
<trkpt lat="46.156508" lon="7.480513"><ele></ele><time>2014-6-19T4:51:16Z</time></trkpt>
<trkpt lat="46.156499" lon="7.480876"><ele></ele><time>2014-6-19T4:51:19Z</time></trkpt>
<trkpt lat="46.156256" lon="7.481173"><ele></ele><time>2014-6-19T4:51:22Z</time></trkpt>
<trkpt lat="46.156220" lon="7.481432"><ele></ele><time>2014-6-19T4:51:25Z</time></trkpt>
<trkpt lat="46.156076" lon="7.481678"><ele></ele><time>2014-6-19T4:51:28Z</time></trkpt>
<trkpt lat="46.155788" lon="7.481975"><ele></ele><time>2014-6-19T4:51:31Z</time></trkpt>
<trkpt lat="46.155698" lon="7.481950"><ele></ele><time>2014-6-19T4:51:34Z</time></trkpt>
<trkpt lat="46.155509" lon="7.482156"><ele></ele><time>2014-6-19T4:51:37Z</time></trkpt>
<trkpt lat="46.155230" lon="7.482778"><ele></ele><time>2014-6-19T4:51:40Z</time></trkpt>
<trkpt lat="46.155221" lon="7.482985"><ele></ele><time>2014-6-19T4:51:43Z</time></trkpt>
<trkpt lat="46.155185" lon="7.484085"><ele></ele><time>2014-6-19T4:51:46Z</time></trkpt>
<trkpt lat="46.155328" lon="7.484978"><ele></ele><time>2014-6-19T4:51:49Z</time></trkpt>
<trkpt lat="46.155247" lon="7.485237"><ele></ele><time>2014-6-19T4:51:52Z</time></trkpt>
<trkpt lat="46.155139" lon="7.485535"><ele></ele><time>2014-6-19T4:51:55Z</time></trkpt>
<trkpt lat="46.155265" lon="7.485923"><ele></ele><time>2014-6-19T4:51:58Z</time></trkpt>
<trkpt lat="46.155220" lon="7.486311"><ele></ele><time>2014-6-19T4:52:1Z</time></trkpt>
<trkpt lat="46.155040" lon="7.486907"><ele></ele><time>2014-6-19T4:52:4Z</time></trkpt>
<trkpt lat="46.154877" lon="7.487140"><ele></ele><time>2014-6-19T4:52:7Z</time></trkpt>
<trkpt lat="46.154976" lon="7.487994"><ele></ele><time>2014-6-19T4:52:10Z</time></trkpt>
<trkpt lat="46.154814" lon="7.488408"><ele></ele><time>2014-6-19T4:52:13Z</time></trkpt>
<trkpt lat="46.154589" lon="7.488537"><ele></ele><time>2014-6-19T4:52:16Z</time></trkpt>
<trkpt lat="46.154373" lon="7.488563"><ele></ele><time>2014-6-19T4:52:19Z</time></trkpt>
<trkpt lat="46.154229" lon="7.488861"><ele></ele><time>2014-6-19T4:52:22Z</time></trkpt>
<trkpt lat="46.154067" lon="7.489650"><ele></ele><time>2014-6-19T4:52:25Z</time></trkpt>
<trkpt lat="46.154013" lon="7.490090"><ele></ele><time>2014-6-19T4:52:28Z</time></trkpt>
<trkpt lat="46.153761" lon="7.490323"><ele></ele><time>2014-6-19T4:52:31Z</time></trkpt>
<trkpt lat="46.153572" lon="7.490439"><ele></ele><time>2014-6-19T4:52:34Z</time></trkpt>
<trkpt lat="46.153473" lon="7.490827"><ele></ele><time>2014-6-19T4:52:37Z</time></trkpt>
<trkpt lat="46.152564" lon="7.491836"><ele></ele><time>2014-6-19T4:52:40Z</time></trkpt>
<trkpt lat="46.152401" lon="7.492082"><ele></ele><time>2014-6-19T4:52:43Z</time></trkpt>
<trkpt lat="46.152131" lon="7.493376"><ele></ele><time>2014-6-19T4:52:46Z</time></trkpt>
<trkpt lat="46.152176" lon="7.494269"><ele></ele><time>2014-6-19T4:52:49Z</time></trkpt>
<trkpt lat="46.152256" lon="7.494683"><ele></ele><time>2014-6-19T4:52:52Z</time></trkpt>
<trkpt lat="46.152292" lon="7.494891"><ele></ele><time>2014-6-19T4:52:55Z</time></trkpt>
<trkpt lat="46.152175" lon="7.495214"><ele></ele><time>2014-6-19T4:52:58Z</time></trkpt>
<trkpt lat="46.152022" lon="7.495279"><ele></ele><time>2014-6-19T4:53:1Z</time></trkpt>
<trkpt lat="46.151887" lon="7.495576"><ele></ele><time>2014-6-19T4:53:4Z</time></trkpt>
<trkpt lat="46.151878" lon="7.495809"><ele></ele><time>2014-6-19T4:53:7Z</time></trkpt>
<trkpt lat="46.151923" lon="7.496172"><ele></ele><time>2014-6-19T4:53:10Z</time></trkpt>
<trkpt lat="46.152030" lon="7.497388"><ele></ele><time>2014-6-19T4:53:13Z</time></trkpt>
<trkpt lat="46.151877" lon="7.498191"><ele></ele><time>2014-6-19T4:53:16Z</time></trkpt>
<trkpt lat="46.152147" lon="7.497829"><ele></ele><time>2014-6-19T4:53:19Z</time></trkpt>
<trkpt lat="46.152355" lon="7.496146"><ele></ele><time>2014-6-19T4:53:22Z</time></trkpt>
<trkpt lat="46.152624" lon="7.495939"><ele></ele><time>2014-6-19T4:53:25Z</time></trkpt>
<trkpt lat="46.152751" lon="7.495732"><ele></ele><time>2014-6-19T4:53:28Z</time></trkpt>
<trkpt lat="46.152931" lon="7.495396"><ele></ele><time>2014-6-19T4:53:31Z</time></trkpt>
<trkpt lat="46.153102" lon="7.494775"><ele></ele><time>2014-6-19T4:53:34Z</time></trkpt>
<trkpt lat="46.153120" lon="7.494063"><ele></ele><time>2014-6-19T4:53:37Z</time></trkpt>
<trkpt lat="46.153219" lon="7.493739"><ele></ele><time>2014-6-19T4:53:40Z</time></trkpt>
<trkpt lat="46.155784" lon="7.492292"><ele></ele><time>2014-6-19T4:53:43Z</time></trkpt>
<trkpt lat="46.155640" lon="7.492577"><ele></ele><time>2014-6-19T4:53:46Z</time></trkpt>
<trkpt lat="46.154893" lon="7.493288"><ele></ele><time>2014-6-19T4:53:49Z</time></trkpt>
<trkpt lat="46.154650" lon="7.493793"><ele></ele><time>2014-6-19T4:53:52Z</time></trkpt>
<trkpt lat="46.154271" lon="7.494802"><ele></ele><time>2014-6-19T4:53:55Z</time></trkpt>
<trkpt lat="46.154423" lon="7.496200"><ele></ele><time>2014-6-19T4:53:58Z</time></trkpt>
<trkpt lat="46.154171" lon="7.498154"><ele></ele><time>2014-6-19T4:54:1Z</time></trkpt>
<trkpt lat="46.154125" lon="7.498763"><ele></ele><time>2014-6-19T4:54:4Z</time></trkpt>
<trkpt lat="46.154170" lon="7.499138"><ele></ele><time>2014-6-19T4:54:7Z</time></trkpt>
<trkpt lat="46.153999" lon="7.499371"><ele></ele><time>2014-6-19T4:54:10Z</time></trkpt>
<trkpt lat="46.153629" lon="7.500898"><ele></ele><time>2014-6-19T4:54:13Z</time></trkpt>
<trkpt lat="46.153692" lon="7.501429"><ele></ele><time>2014-6-19T4:54:16Z</time></trkpt>
<trkpt lat="46.153467" lon="7.502076"><ele></ele><time>2014-6-19T4:54:19Z</time></trkpt>
<trkpt lat="46.153466" lon="7.503202"><ele></ele><time>2014-6-19T4:54:22Z</time></trkpt>
<trkpt lat="46.153466" lon="7.503914"><ele></ele><time>2014-6-19T4:54:25Z</time></trkpt>
<trkpt lat="46.152989" lon="7.504366"><ele></ele><time>2014-6-19T4:54:28Z</time></trkpt>
<trkpt lat="46.152863" lon="7.504832"><ele></ele><time>2014-6-19T4:54:31Z</time></trkpt>
<trkpt lat="46.152925" lon="7.505518"><ele></ele><time>2014-6-19T4:54:34Z</time></trkpt>
<trkpt lat="46.152907" lon="7.505725"><ele></ele><time>2014-6-19T4:54:37Z</time></trkpt>
<trkpt lat="46.153051" lon="7.506204"><ele></ele><time>2014-6-19T4:54:40Z</time></trkpt>
<trkpt lat="46.153131" lon="7.507240"><ele></ele><time>2014-6-19T4:54:43Z</time></trkpt>
<trkpt lat="46.153211" lon="7.507952"><ele></ele><time>2014-6-19T4:54:46Z</time></trkpt>
<trkpt lat="46.154414" lon="7.512238"><ele></ele><time>2014-6-19T4:54:49Z</time></trkpt>
<trkpt lat="46.154630" lon="7.512342"><ele></ele><time>2014-6-19T4:54:52Z</time></trkpt>
<trkpt lat="46.154468" lon="7.512665"><ele></ele><time>2014-6-19T4:54:55Z</time></trkpt>
<trkpt lat="46.155043" lon="7.513339"><ele></ele><time>2014-6-19T4:54:58Z</time></trkpt>
<trkpt lat="46.154764" lon="7.513753"><ele></ele><time>2014-6-19T4:55:1Z</time></trkpt>
<trkpt lat="46.154980" lon="7.513792"><ele></ele><time>2014-6-19T4:55:4Z</time></trkpt>
<trkpt lat="46.154836" lon="7.514025"><ele></ele><time>2014-6-19T4:55:7Z</time></trkpt>
<trkpt lat="46.154989" lon="7.514116"><ele></ele><time>2014-6-19T4:55:10Z</time></trkpt>
<trkpt lat="46.154800" lon="7.514439"><ele></ele><time>2014-6-19T4:55:13Z</time></trkpt>
<trkpt lat="46.155329" lon="7.516135"><ele></ele><time>2014-6-19T4:55:16Z</time></trkpt>
<trkpt lat="46.155230" lon="7.516511"><ele></ele><time>2014-6-19T4:55:19Z</time></trkpt>
<trkpt lat="46.154861" lon="7.516640"><ele></ele><time>2014-6-19T4:55:22Z</time></trkpt>
<trkpt lat="46.154447" lon="7.516600"><ele></ele><time>2014-6-19T4:55:25Z</time></trkpt>
<trkpt lat="46.154411" lon="7.516937"><ele></ele><time>2014-6-19T4:55:28Z</time></trkpt>
<trkpt lat="46.154653" lon="7.517675"><ele></ele><time>2014-6-19T4:55:31Z</time></trkpt>
<trkpt lat="46.155704" lon="7.519670"><ele></ele><time>2014-6-19T4:55:34Z</time></trkpt>
<trkpt lat="46.155722" lon="7.519890"><ele></ele><time>2014-6-19T4:55:37Z</time></trkpt>
<trkpt lat="46.155749" lon="7.519890"><ele></ele><time>2014-6-19T4:55:40Z</time></trkpt>
<trkpt lat="46.155020" lon="7.520899"><ele></ele><time>2014-6-19T4:55:43Z</time></trkpt>
<trkpt lat="46.153840" lon="7.522295"><ele></ele><time>2014-6-19T4:55:46Z</time></trkpt>
<trkpt lat="46.152544" lon="7.523419"><ele></ele><time>2014-6-19T4:55:49Z</time></trkpt>
<trkpt lat="46.153405" lon="7.526591"><ele></ele><time>2014-6-19T4:55:52Z</time></trkpt>
<trkpt lat="46.153180" lon="7.527484"><ele></ele><time>2014-6-19T4:55:55Z</time></trkpt>
<trkpt lat="46.153098" lon="7.528183"><ele></ele><time>2014-6-19T4:55:58Z</time></trkpt>
<trkpt lat="46.153017" lon="7.529193"><ele></ele><time>2014-6-19T4:56:1Z</time></trkpt>
<trkpt lat="46.153061" lon="7.529853"><ele></ele><time>2014-6-19T4:56:4Z</time></trkpt>
<trkpt lat="46.152997" lon="7.530798"><ele></ele><time>2014-6-19T4:56:7Z</time></trkpt>
<trkpt lat="46.153698" lon="7.532430"><ele></ele><time>2014-6-19T4:56:10Z</time></trkpt>
<trkpt lat="46.153634" lon="7.532883"><ele></ele><time>2014-6-19T4:56:13Z</time></trkpt>
<trkpt lat="46.153571" lon="7.533206"><ele></ele><time>2014-6-19T4:56:16Z</time></trkpt>
<trkpt lat="46.153544" lon="7.533413"><ele></ele><time>2014-6-19T4:56:19Z</time></trkpt>
<trkpt lat="46.153427" lon="7.533646"><ele></ele><time>2014-6-19T4:56:22Z</time></trkpt>
<trkpt lat="46.153525" lon="7.533827"><ele></ele><time>2014-6-19T4:56:25Z</time></trkpt>
<trkpt lat="46.153057" lon="7.534241"><ele></ele><time>2014-6-19T4:56:28Z</time></trkpt>
<trkpt lat="46.152904" lon="7.535043"><ele></ele><time>2014-6-19T4:56:31Z</time></trkpt>
<trkpt lat="46.152517" lon="7.535366"><ele></ele><time>2014-6-19T4:56:34Z</time></trkpt>
<trkpt lat="46.152264" lon="7.536090"><ele></ele><time>2014-6-19T4:56:37Z</time></trkpt>
<trkpt lat="46.151877" lon="7.536374"><ele></ele><time>2014-6-19T4:56:40Z</time></trkpt>
<trkpt lat="46.151642" lon="7.537358"><ele></ele><time>2014-6-19T4:56:43Z</time></trkpt>
<trkpt lat="46.151588" lon="7.537720"><ele></ele><time>2014-6-19T4:56:46Z</time></trkpt>
<trkpt lat="46.151767" lon="7.539015"><ele></ele><time>2014-6-19T4:56:49Z</time></trkpt>
<trkpt lat="46.151893" lon="7.539144"><ele></ele><time>2014-6-19T4:56:52Z</time></trkpt>
<trkpt lat="46.152162" lon="7.539442"><ele></ele><time>2014-6-19T4:56:55Z</time></trkpt>
<trkpt lat="46.152144" lon="7.539766"><ele></ele><time>2014-6-19T4:56:58Z</time></trkpt>
<trkpt lat="46.152036" lon="7.540206"><ele></ele><time>2014-6-19T4:57:1Z</time></trkpt>
<trkpt lat="46.151783" lon="7.540503"><ele></ele><time>2014-6-19T4:57:4Z</time></trkpt>
<trkpt lat="46.151459" lon="7.540800"><ele></ele><time>2014-6-19T4:57:7Z</time></trkpt>
<trkpt lat="46.149975" lon="7.541445"><ele></ele><time>2014-6-19T4:57:10Z</time></trkpt>
<trkpt lat="46.149722" lon="7.541690"><ele></ele><time>2014-6-19T4:57:13Z</time></trkpt>
<trkpt lat="46.149560" lon="7.541897"><ele></ele><time>2014-6-19T4:57:16Z</time></trkpt>
<trkpt lat="46.149515" lon="7.542104"><ele></ele><time>2014-6-19T4:57:19Z</time></trkpt>
<trkpt lat="46.150100" lon="7.541859"><ele></ele><time>2014-6-19T4:57:22Z</time></trkpt>
<trkpt lat="46.150055" lon="7.542183"><ele></ele><time>2014-6-19T4:57:25Z</time></trkpt>
<trkpt lat="46.150216" lon="7.542519"><ele></ele><time>2014-6-19T4:57:28Z</time></trkpt>
<trkpt lat="46.150117" lon="7.542752"><ele></ele><time>2014-6-19T4:57:31Z</time></trkpt>
<trkpt lat="46.150261" lon="7.543024"><ele></ele><time>2014-6-19T4:57:34Z</time></trkpt>
<trkpt lat="46.150648" lon="7.543051"><ele></ele><time>2014-6-19T4:57:37Z</time></trkpt>
<trkpt lat="46.150629" lon="7.543465"><ele></ele><time>2014-6-19T4:57:40Z</time></trkpt>
<trkpt lat="46.150450" lon="7.543322"><ele></ele><time>2014-6-19T4:57:43Z</time></trkpt>
<trkpt lat="46.150548" lon="7.543801"><ele></ele><time>2014-6-19T4:57:46Z</time></trkpt>
<trkpt lat="46.150260" lon="7.543969"><ele></ele><time>2014-6-19T4:57:49Z</time></trkpt>
<trkpt lat="46.149945" lon="7.543943"><ele></ele><time>2014-6-19T4:57:52Z</time></trkpt>
<trkpt lat="46.149747" lon="7.544059"><ele></ele><time>2014-6-19T4:57:55Z</time></trkpt>
<trkpt lat="46.149666" lon="7.544240"><ele></ele><time>2014-6-19T4:57:58Z</time></trkpt>
<trkpt lat="46.149621" lon="7.544304"><ele></ele><time>2014-6-19T4:58:1Z</time></trkpt>
<trkpt lat="46.149747" lon="7.544538"><ele></ele><time>2014-6-19T4:58:4Z</time></trkpt>
<trkpt lat="46.149477" lon="7.544887"><ele></ele><time>2014-6-19T4:58:7Z</time></trkpt>
<trkpt lat="46.149656" lon="7.545016"><ele></ele><time>2014-6-19T4:58:10Z</time></trkpt>
<trkpt lat="46.150008" lon="7.544629"><ele></ele><time>2014-6-19T4:58:13Z</time></trkpt>
<trkpt lat="46.150052" lon="7.545134"><ele></ele><time>2014-6-19T4:58:16Z</time></trkpt>
<trkpt lat="46.149683" lon="7.545728"><ele></ele><time>2014-6-19T4:58:19Z</time></trkpt>
<trkpt lat="46.149251" lon="7.546012"><ele></ele><time>2014-6-19T4:58:22Z</time></trkpt>
<trkpt lat="46.149026" lon="7.546154"><ele></ele><time>2014-6-19T4:58:25Z</time></trkpt>
<trkpt lat="46.148630" lon="7.545894"><ele></ele><time>2014-6-19T4:58:28Z</time></trkpt>
<trkpt lat="46.148279" lon="7.545920"><ele></ele><time>2014-6-19T4:58:31Z</time></trkpt>
<trkpt lat="46.148180" lon="7.545958"><ele></ele><time>2014-6-19T4:58:34Z</time></trkpt>
<trkpt lat="46.148378" lon="7.546450"><ele></ele><time>2014-6-19T4:58:37Z</time></trkpt>
<trkpt lat="46.148674" lon="7.546542"><ele></ele><time>2014-6-19T4:58:40Z</time></trkpt>
<trkpt lat="46.148665" lon="7.547085"><ele></ele><time>2014-6-19T4:58:43Z</time></trkpt>
<trkpt lat="46.148116" lon="7.547667"><ele></ele><time>2014-6-19T4:58:46Z</time></trkpt>
<trkpt lat="46.148070" lon="7.548119"><ele></ele><time>2014-6-19T4:58:49Z</time></trkpt>
<trkpt lat="46.148070" lon="7.548249"><ele></ele><time>2014-6-19T4:58:52Z</time></trkpt>
<trkpt lat="46.147881" lon="7.547990"><ele></ele><time>2014-6-19T4:58:55Z</time></trkpt>
<trkpt lat="46.147594" lon="7.547743"><ele></ele><time>2014-6-19T4:58:58Z</time></trkpt>
<trkpt lat="46.147656" lon="7.548494"><ele></ele><time>2014-6-19T4:59:1Z</time></trkpt>
<trkpt lat="46.147746" lon="7.548792"><ele></ele><time>2014-6-19T4:59:4Z</time></trkpt>
<trkpt lat="46.147763" lon="7.549115"><ele></ele><time>2014-6-19T4:59:7Z</time></trkpt>
<trkpt lat="46.147637" lon="7.549387"><ele></ele><time>2014-6-19T4:59:10Z</time></trkpt>
<trkpt lat="46.147619" lon="7.549801"><ele></ele><time>2014-6-19T4:59:13Z</time></trkpt>
<trkpt lat="46.147618" lon="7.550280"><ele></ele><time>2014-6-19T4:59:16Z</time></trkpt>
<trkpt lat="46.147537" lon="7.550487"><ele></ele><time>2014-6-19T4:59:19Z</time></trkpt>
<trkpt lat="46.147573" lon="7.550772"><ele></ele><time>2014-6-19T4:59:22Z</time></trkpt>
<trkpt lat="46.147447" lon="7.550720"><ele></ele><time>2014-6-19T4:59:25Z</time></trkpt>
<trkpt lat="46.147393" lon="7.550370"><ele></ele><time>2014-6-19T4:59:28Z</time></trkpt>
<trkpt lat="46.147367" lon="7.550072"><ele></ele><time>2014-6-19T4:59:31Z</time></trkpt>
<trkpt lat="46.147223" lon="7.550072"><ele></ele><time>2014-6-19T4:59:34Z</time></trkpt>
<trkpt lat="46.147186" lon="7.551185"><ele></ele><time>2014-6-19T4:59:37Z</time></trkpt>
<trkpt lat="46.147185" lon="7.551483"><ele></ele><time>2014-6-19T4:59:40Z</time></trkpt>
<trkpt lat="46.147095" lon="7.551547"><ele></ele><time>2014-6-19T4:59:43Z</time></trkpt>
<trkpt lat="46.146871" lon="7.551340"><ele></ele><time>2014-6-19T4:59:46Z</time></trkpt>
<trkpt lat="46.146835" lon="7.550951"><ele></ele><time>2014-6-19T4:59:49Z</time></trkpt>
<trkpt lat="46.146754" lon="7.550718"><ele></ele><time>2014-6-19T4:59:52Z</time></trkpt>
<trkpt lat="46.146628" lon="7.550770"><ele></ele><time>2014-6-19T4:59:55Z</time></trkpt>
<trkpt lat="46.146610" lon="7.551184"><ele></ele><time>2014-6-19T4:59:58Z</time></trkpt>
<trkpt lat="46.146610" lon="7.551339"><ele></ele><time>2014-6-19T5:0:1Z</time></trkpt>
<trkpt lat="46.146465" lon="7.551701"><ele></ele><time>2014-6-19T5:0:4Z</time></trkpt>
<trkpt lat="46.146357" lon="7.552050"><ele></ele><time>2014-6-19T5:0:7Z</time></trkpt>
<trkpt lat="46.146213" lon="7.551817"><ele></ele><time>2014-6-19T5:0:10Z</time></trkpt>
<trkpt lat="46.146043" lon="7.551869"><ele></ele><time>2014-6-19T5:0:13Z</time></trkpt>
<trkpt lat="46.145961" lon="7.552464"><ele></ele><time>2014-6-19T5:0:16Z</time></trkpt>
<trkpt lat="46.145700" lon="7.552489"><ele></ele><time>2014-6-19T5:0:19Z</time></trkpt>
<trkpt lat="46.145466" lon="7.552553"><ele></ele><time>2014-6-19T5:0:22Z</time></trkpt>
<trkpt lat="46.145385" lon="7.552812"><ele></ele><time>2014-6-19T5:0:25Z</time></trkpt>
<trkpt lat="46.145528" lon="7.554003"><ele></ele><time>2014-6-19T5:0:28Z</time></trkpt>
<trkpt lat="46.145384" lon="7.554067"><ele></ele><time>2014-6-19T5:0:31Z</time></trkpt>
<trkpt lat="46.144629" lon="7.553082"><ele></ele><time>2014-6-19T5:0:34Z</time></trkpt>
<trkpt lat="46.144476" lon="7.552991"><ele></ele><time>2014-6-19T5:0:37Z</time></trkpt>
<trkpt lat="46.144682" lon="7.553742"><ele></ele><time>2014-6-19T5:0:40Z</time></trkpt>
<trkpt lat="46.144844" lon="7.554027"><ele></ele><time>2014-6-19T5:0:43Z</time></trkpt>
<trkpt lat="46.144934" lon="7.554248"><ele></ele><time>2014-6-19T5:0:46Z</time></trkpt>
<trkpt lat="46.144843" lon="7.555050"><ele></ele><time>2014-6-19T5:0:49Z</time></trkpt>
<trkpt lat="46.144762" lon="7.555140"><ele></ele><time>2014-6-19T5:0:52Z</time></trkpt>
<trkpt lat="46.144564" lon="7.554726"><ele></ele><time>2014-6-19T5:0:55Z</time></trkpt>
<trkpt lat="46.144106" lon="7.554725"><ele></ele><time>2014-6-19T5:0:58Z</time></trkpt>
<trkpt lat="46.143961" lon="7.554919"><ele></ele><time>2014-6-19T5:1:1Z</time></trkpt>
<trkpt lat="46.143898" lon="7.555604"><ele></ele><time>2014-6-19T5:1:4Z</time></trkpt>
<trkpt lat="46.143978" lon="7.555902"><ele></ele><time>2014-6-19T5:1:7Z</time></trkpt>
<trkpt lat="46.143879" lon="7.556562"><ele></ele><time>2014-6-19T5:1:10Z</time></trkpt>
<trkpt lat="46.143977" lon="7.557688"><ele></ele><time>2014-6-19T5:1:13Z</time></trkpt>
<trkpt lat="46.143896" lon="7.557740"><ele></ele><time>2014-6-19T5:1:16Z</time></trkpt>
<trkpt lat="46.143626" lon="7.557183"><ele></ele><time>2014-6-19T5:1:19Z</time></trkpt>
<trkpt lat="46.143250" lon="7.556172"><ele></ele><time>2014-6-19T5:1:22Z</time></trkpt>
<trkpt lat="46.143106" lon="7.555551"><ele></ele><time>2014-6-19T5:1:25Z</time></trkpt>
<trkpt lat="46.142980" lon="7.555551"><ele></ele><time>2014-6-19T5:1:28Z</time></trkpt>
<trkpt lat="46.142953" lon="7.555900"><ele></ele><time>2014-6-19T5:1:31Z</time></trkpt>
<trkpt lat="46.142827" lon="7.556107"><ele></ele><time>2014-6-19T5:1:34Z</time></trkpt>
<trkpt lat="46.142835" lon="7.556637"><ele></ele><time>2014-6-19T5:1:37Z</time></trkpt>
<trkpt lat="46.142898" lon="7.557026"><ele></ele><time>2014-6-19T5:1:40Z</time></trkpt>
<trkpt lat="46.142403" lon="7.556649"><ele></ele><time>2014-6-19T5:1:43Z</time></trkpt>
<trkpt lat="46.142304" lon="7.557232"><ele></ele><time>2014-6-19T5:1:46Z</time></trkpt>
<trkpt lat="46.141970" lon="7.557839"><ele></ele><time>2014-6-19T5:1:49Z</time></trkpt>
<trkpt lat="46.141672" lon="7.558887"><ele></ele><time>2014-6-19T5:1:52Z</time></trkpt>
<trkpt lat="46.141546" lon="7.558899"><ele></ele><time>2014-6-19T5:1:55Z</time></trkpt>
<trkpt lat="46.141574" lon="7.558472"><ele></ele><time>2014-6-19T5:1:58Z</time></trkpt>
<trkpt lat="46.140854" lon="7.558302"><ele></ele><time>2014-6-19T5:2:1Z</time></trkpt>
<trkpt lat="46.140234" lon="7.558482"><ele></ele><time>2014-6-19T5:2:4Z</time></trkpt>
<trkpt lat="46.139549" lon="7.559102"><ele></ele><time>2014-6-19T5:2:7Z</time></trkpt>
<trkpt lat="46.139261" lon="7.559399"><ele></ele><time>2014-6-19T5:2:10Z</time></trkpt>
<trkpt lat="46.139134" lon="7.560253"><ele></ele><time>2014-6-19T5:2:13Z</time></trkpt>
<trkpt lat="46.139008" lon="7.560602"><ele></ele><time>2014-6-19T5:2:16Z</time></trkpt>
<trkpt lat="46.138630" lon="7.560769"><ele></ele><time>2014-6-19T5:2:19Z</time></trkpt>
<trkpt lat="46.138081" lon="7.560690"><ele></ele><time>2014-6-19T5:2:22Z</time></trkpt>
<trkpt lat="46.137857" lon="7.560457"><ele></ele><time>2014-6-19T5:2:25Z</time></trkpt>
<trkpt lat="46.137362" lon="7.560158"><ele></ele><time>2014-6-19T5:2:28Z</time></trkpt>
<trkpt lat="46.136804" lon="7.560248"><ele></ele><time>2014-6-19T5:2:31Z</time></trkpt>
<trkpt lat="46.136489" lon="7.560544"><ele></ele><time>2014-6-19T5:2:34Z</time></trkpt>
<trkpt lat="46.136255" lon="7.560699"><ele></ele><time>2014-6-19T5:2:37Z</time></trkpt>
<trkpt lat="46.135868" lon="7.560660"><ele></ele><time>2014-6-19T5:2:40Z</time></trkpt>
<trkpt lat="46.135724" lon="7.560776"><ele></ele><time>2014-6-19T5:2:43Z</time></trkpt>
<trkpt lat="46.135472" lon="7.560956"><ele></ele><time>2014-6-19T5:2:46Z</time></trkpt>
<trkpt lat="46.135103" lon="7.561020"><ele></ele><time>2014-6-19T5:2:49Z</time></trkpt>
<trkpt lat="46.135031" lon="7.561447"><ele></ele><time>2014-6-19T5:2:52Z</time></trkpt>
<trkpt lat="46.134878" lon="7.561705"><ele></ele><time>2014-6-19T5:2:55Z</time></trkpt>
<trkpt lat="46.133880" lon="7.561224"><ele></ele><time>2014-6-19T5:2:58Z</time></trkpt>
<trkpt lat="46.133385" lon="7.560887"><ele></ele><time>2014-6-19T5:3:1Z</time></trkpt>
<trkpt lat="46.132972" lon="7.560563"><ele></ele><time>2014-6-19T5:3:4Z</time></trkpt>
<trkpt lat="46.132747" lon="7.560355"><ele></ele><time>2014-6-19T5:3:7Z</time></trkpt>
<trkpt lat="46.132657" lon="7.560652"><ele></ele><time>2014-6-19T5:3:10Z</time></trkpt>
<trkpt lat="46.132639" lon="7.561105"><ele></ele><time>2014-6-19T5:3:13Z</time></trkpt>
<trkpt lat="46.132315" lon="7.561104"><ele></ele><time>2014-6-19T5:3:16Z</time></trkpt>
<trkpt lat="46.131946" lon="7.560923"><ele></ele><time>2014-6-19T5:3:19Z</time></trkpt>
<trkpt lat="46.131515" lon="7.559822"><ele></ele><time>2014-6-19T5:3:22Z</time></trkpt>
<trkpt lat="46.131364" lon="7.558709"><ele></ele><time>2014-6-19T5:3:25Z</time></trkpt>
<trkpt lat="46.131329" lon="7.557738"><ele></ele><time>2014-6-19T5:3:28Z</time></trkpt>
<trkpt lat="46.131086" lon="7.557453"><ele></ele><time>2014-6-19T5:3:31Z</time></trkpt>
<trkpt lat="46.130924" lon="7.557414"><ele></ele><time>2014-6-19T5:3:34Z</time></trkpt>
<trkpt lat="46.130915" lon="7.557686"><ele></ele><time>2014-6-19T5:3:37Z</time></trkpt>
<trkpt lat="46.130942" lon="7.558048"><ele></ele><time>2014-6-19T5:3:40Z</time></trkpt>
<trkpt lat="46.130770" lon="7.558371"><ele></ele><time>2014-6-19T5:3:43Z</time></trkpt>
<trkpt lat="46.130590" lon="7.558487"><ele></ele><time>2014-6-19T5:3:46Z</time></trkpt>
<trkpt lat="46.130294" lon="7.558460"><ele></ele><time>2014-6-19T5:3:49Z</time></trkpt>
<trkpt lat="46.130122" lon="7.558771"><ele></ele><time>2014-6-19T5:3:52Z</time></trkpt>
<trkpt lat="46.130014" lon="7.559404"><ele></ele><time>2014-6-19T5:3:55Z</time></trkpt>
<trkpt lat="46.130067" lon="7.559702"><ele></ele><time>2014-6-19T5:3:58Z</time></trkpt>
<trkpt lat="46.130094" lon="7.560116"><ele></ele><time>2014-6-19T5:4:1Z</time></trkpt>
<trkpt lat="46.130300" lon="7.560440"><ele></ele><time>2014-6-19T5:4:4Z</time></trkpt>
<trkpt lat="46.130525" lon="7.560738"><ele></ele><time>2014-6-19T5:4:7Z</time></trkpt>
<trkpt lat="46.130048" lon="7.560621"><ele></ele><time>2014-6-19T5:4:10Z</time></trkpt>
<trkpt lat="46.129761" lon="7.560297"><ele></ele><time>2014-6-19T5:4:13Z</time></trkpt>
<trkpt lat="46.129572" lon="7.560141"><ele></ele><time>2014-6-19T5:4:16Z</time></trkpt>
<trkpt lat="46.129311" lon="7.560179"><ele></ele><time>2014-6-19T5:4:19Z</time></trkpt>
<trkpt lat="46.129123" lon="7.559972"><ele></ele><time>2014-6-19T5:4:22Z</time></trkpt>
<trkpt lat="46.129041" lon="7.560140"><ele></ele><time>2014-6-19T5:4:25Z</time></trkpt>
<trkpt lat="46.128978" lon="7.560502"><ele></ele><time>2014-6-19T5:4:28Z</time></trkpt>
<trkpt lat="46.129149" lon="7.560890"><ele></ele><time>2014-6-19T5:4:31Z</time></trkpt>
<trkpt lat="46.129490" lon="7.561098"><ele></ele><time>2014-6-19T5:4:34Z</time></trkpt>
<trkpt lat="46.129814" lon="7.561371"><ele></ele><time>2014-6-19T5:4:37Z</time></trkpt>
<trkpt lat="46.130047" lon="7.562005"><ele></ele><time>2014-6-19T5:4:40Z</time></trkpt>
<trkpt lat="46.130388" lon="7.562808"><ele></ele><time>2014-6-19T5:4:43Z</time></trkpt>
<trkpt lat="46.131008" lon="7.563211"><ele></ele><time>2014-6-19T5:4:46Z</time></trkpt>
<trkpt lat="46.131080" lon="7.563495"><ele></ele><time>2014-6-19T5:4:49Z</time></trkpt>
<trkpt lat="46.131592" lon="7.563548"><ele></ele><time>2014-6-19T5:4:52Z</time></trkpt>
<trkpt lat="46.132150" lon="7.563938"><ele></ele><time>2014-6-19T5:4:55Z</time></trkpt>
<trkpt lat="46.133040" lon="7.564328"><ele></ele><time>2014-6-19T5:4:58Z</time></trkpt>
<trkpt lat="46.133309" lon="7.564626"><ele></ele><time>2014-6-19T5:5:1Z</time></trkpt>
<trkpt lat="46.134398" lon="7.564836"><ele></ele><time>2014-6-19T5:5:4Z</time></trkpt>
<trkpt lat="46.135530" lon="7.565369"><ele></ele><time>2014-6-19T5:5:7Z</time></trkpt>
<trkpt lat="46.134478" lon="7.565522"><ele></ele><time>2014-6-19T5:5:10Z</time></trkpt>
<trkpt lat="46.134217" lon="7.565392"><ele></ele><time>2014-6-19T5:5:13Z</time></trkpt>
<trkpt lat="46.135574" lon="7.566314"><ele></ele><time>2014-6-19T5:5:16Z</time></trkpt>
<trkpt lat="46.136087" lon="7.566677"><ele></ele><time>2014-6-19T5:5:19Z</time></trkpt>
<trkpt lat="46.136320" lon="7.566846"><ele></ele><time>2014-6-19T5:5:22Z</time></trkpt>
<trkpt lat="46.137040" lon="7.567080"><ele></ele><time>2014-6-19T5:5:25Z</time></trkpt>
<trkpt lat="46.137246" lon="7.567275"><ele></ele><time>2014-6-19T5:5:28Z</time></trkpt>
<trkpt lat="46.136914" lon="7.567261"><ele></ele><time>2014-6-19T5:5:31Z</time></trkpt>
<trkpt lat="46.136797" lon="7.567352"><ele></ele><time>2014-6-19T5:5:34Z</time></trkpt>
<trkpt lat="46.137318" lon="7.567534"><ele></ele><time>2014-6-19T5:5:37Z</time></trkpt>
<trkpt lat="46.137768" lon="7.567263"><ele></ele><time>2014-6-19T5:5:40Z</time></trkpt>
<trkpt lat="46.138146" lon="7.567148"><ele></ele><time>2014-6-19T5:5:43Z</time></trkpt>
<trkpt lat="46.138227" lon="7.567187"><ele></ele><time>2014-6-19T5:5:46Z</time></trkpt>
<trkpt lat="46.137939" lon="7.567393"><ele></ele><time>2014-6-19T5:5:49Z</time></trkpt>
<trkpt lat="46.138191" lon="7.567458"><ele></ele><time>2014-6-19T5:5:52Z</time></trkpt>
<trkpt lat="46.138344" lon="7.567239"><ele></ele><time>2014-6-19T5:5:55Z</time></trkpt>
<trkpt lat="46.138488" lon="7.567006"><ele></ele><time>2014-6-19T5:5:58Z</time></trkpt>
<trkpt lat="46.139136" lon="7.567189"><ele></ele><time>2014-6-19T5:6:1Z</time></trkpt>
<trkpt lat="46.139316" lon="7.567008"><ele></ele><time>2014-6-19T5:6:4Z</time></trkpt>
<trkpt lat="46.139837" lon="7.567281"><ele></ele><time>2014-6-19T5:6:7Z</time></trkpt>
<trkpt lat="46.140215" lon="7.567334"><ele></ele><time>2014-6-19T5:6:10Z</time></trkpt>
<trkpt lat="46.140350" lon="7.567205"><ele></ele><time>2014-6-19T5:6:13Z</time></trkpt>
<trkpt lat="46.140503" lon="7.567231"><ele></ele><time>2014-6-19T5:6:16Z</time></trkpt>
<trkpt lat="46.140359" lon="7.567464"><ele></ele><time>2014-6-19T5:6:19Z</time></trkpt>
<trkpt lat="46.139953" lon="7.567747"><ele></ele><time>2014-6-19T5:6:22Z</time></trkpt>
<trkpt lat="46.139666" lon="7.567734"><ele></ele><time>2014-6-19T5:6:25Z</time></trkpt>
<trkpt lat="46.139549" lon="7.567902"><ele></ele><time>2014-6-19T5:6:28Z</time></trkpt>
<trkpt lat="46.139872" lon="7.567928"><ele></ele><time>2014-6-19T5:6:31Z</time></trkpt>
<trkpt lat="46.140133" lon="7.567994"><ele></ele><time>2014-6-19T5:6:34Z</time></trkpt>
<trkpt lat="46.140367" lon="7.567839"><ele></ele><time>2014-6-19T5:6:37Z</time></trkpt>
<trkpt lat="46.140493" lon="7.567878"><ele></ele><time>2014-6-19T5:6:40Z</time></trkpt>
<trkpt lat="46.140223" lon="7.568162"><ele></ele><time>2014-6-19T5:6:43Z</time></trkpt>
<trkpt lat="46.139746" lon="7.568200"><ele></ele><time>2014-6-19T5:6:46Z</time></trkpt>
<trkpt lat="46.139728" lon="7.568368"><ele></ele><time>2014-6-19T5:6:49Z</time></trkpt>
<trkpt lat="46.139953" lon="7.568537"><ele></ele><time>2014-6-19T5:6:52Z</time></trkpt>
<trkpt lat="46.140330" lon="7.568551"><ele></ele><time>2014-6-19T5:6:55Z</time></trkpt>
<trkpt lat="46.139808" lon="7.568782"><ele></ele><time>2014-6-19T5:6:58Z</time></trkpt>
<trkpt lat="46.139538" lon="7.568885"><ele></ele><time>2014-6-19T5:7:1Z</time></trkpt>
<trkpt lat="46.139296" lon="7.568729"><ele></ele><time>2014-6-19T5:7:4Z</time></trkpt>
<trkpt lat="46.139026" lon="7.568871"><ele></ele><time>2014-6-19T5:7:7Z</time></trkpt>
<trkpt lat="46.138801" lon="7.569052"><ele></ele><time>2014-6-19T5:7:10Z</time></trkpt>
<trkpt lat="46.138845" lon="7.569168"><ele></ele><time>2014-6-19T5:7:13Z</time></trkpt>
<trkpt lat="46.139007" lon="7.569207"><ele></ele><time>2014-6-19T5:7:16Z</time></trkpt>
<trkpt lat="46.139187" lon="7.569415"><ele></ele><time>2014-6-19T5:7:19Z</time></trkpt>
<trkpt lat="46.139070" lon="7.569673"><ele></ele><time>2014-6-19T5:7:22Z</time></trkpt>
<trkpt lat="46.138845" lon="7.569854"><ele></ele><time>2014-6-19T5:7:25Z</time></trkpt>
<trkpt lat="46.138611" lon="7.569853"><ele></ele><time>2014-6-19T5:7:28Z</time></trkpt>
<trkpt lat="46.138305" lon="7.569879"><ele></ele><time>2014-6-19T5:7:31Z</time></trkpt>
<trkpt lat="46.138224" lon="7.569995"><ele></ele><time>2014-6-19T5:7:34Z</time></trkpt>
<trkpt lat="46.138197" lon="7.570176"><ele></ele><time>2014-6-19T5:7:37Z</time></trkpt>
<trkpt lat="46.137567" lon="7.570123"><ele></ele><time>2014-6-19T5:7:40Z</time></trkpt>
<trkpt lat="46.138258" lon="7.571612"><ele></ele><time>2014-6-19T5:7:43Z</time></trkpt>
<trkpt lat="46.138906" lon="7.571135"><ele></ele><time>2014-6-19T5:7:46Z</time></trkpt>
<trkpt lat="46.139050" lon="7.570954"><ele></ele><time>2014-6-19T5:7:49Z</time></trkpt>
<trkpt lat="46.139114" lon="7.570579"><ele></ele><time>2014-6-19T5:7:52Z</time></trkpt>
<trkpt lat="46.139276" lon="7.570424"><ele></ele><time>2014-6-19T5:7:55Z</time></trkpt>
<trkpt lat="46.139402" lon="7.570334"><ele></ele><time>2014-6-19T5:7:58Z</time></trkpt>
<trkpt lat="46.139897" lon="7.570361"><ele></ele><time>2014-6-19T5:8:1Z</time></trkpt>
<trkpt lat="46.140085" lon="7.570543"><ele></ele><time>2014-6-19T5:8:4Z</time></trkpt>
<trkpt lat="46.140292" lon="7.570686"><ele></ele><time>2014-6-19T5:8:7Z</time></trkpt>
<trkpt lat="46.140930" lon="7.570843"><ele></ele><time>2014-6-19T5:8:10Z</time></trkpt>
<trkpt lat="46.141308" lon="7.571167"><ele></ele><time>2014-6-19T5:8:13Z</time></trkpt>
<trkpt lat="46.142855" lon="7.571546"><ele></ele><time>2014-6-19T5:8:16Z</time></trkpt>
<trkpt lat="46.143404" lon="7.571043"><ele></ele><time>2014-6-19T5:8:19Z</time></trkpt>
<trkpt lat="46.144034" lon="7.570954"><ele></ele><time>2014-6-19T5:8:22Z</time></trkpt>
<trkpt lat="46.144493" lon="7.570838"><ele></ele><time>2014-6-19T5:8:25Z</time></trkpt>
<trkpt lat="46.145276" lon="7.570517"><ele></ele><time>2014-6-19T5:8:28Z</time></trkpt>
<trkpt lat="46.145671" lon="7.570582"><ele></ele><time>2014-6-19T5:8:31Z</time></trkpt>
<trkpt lat="46.146121" lon="7.570648"><ele></ele><time>2014-6-19T5:8:34Z</time></trkpt>
<trkpt lat="46.146589" lon="7.570429"><ele></ele><time>2014-6-19T5:8:37Z</time></trkpt>
<trkpt lat="46.147327" lon="7.570521"><ele></ele><time>2014-6-19T5:8:40Z</time></trkpt>
<trkpt lat="46.148028" lon="7.570523"><ele></ele><time>2014-6-19T5:8:43Z</time></trkpt>
<trkpt lat="46.148299" lon="7.570110"><ele></ele><time>2014-6-19T5:8:46Z</time></trkpt>
<trkpt lat="46.148379" lon="7.570446"><ele></ele><time>2014-6-19T5:8:49Z</time></trkpt>
<trkpt lat="46.148507" lon="7.569127"><ele></ele><time>2014-6-19T5:8:52Z</time></trkpt>
<trkpt lat="46.148921" lon="7.569076"><ele></ele><time>2014-6-19T5:8:55Z</time></trkpt>
<trkpt lat="46.149128" lon="7.568856"><ele></ele><time>2014-6-19T5:8:58Z</time></trkpt>
<trkpt lat="46.149335" lon="7.568546"><ele></ele><time>2014-6-19T5:9:1Z</time></trkpt>
<trkpt lat="46.149578" lon="7.568417"><ele></ele><time>2014-6-19T5:9:4Z</time></trkpt>
<trkpt lat="46.149992" lon="7.568431"><ele></ele><time>2014-6-19T5:9:7Z</time></trkpt>
<trkpt lat="46.150397" lon="7.568419"><ele></ele><time>2014-6-19T5:9:10Z</time></trkpt>
<trkpt lat="46.150883" lon="7.568213"><ele></ele><time>2014-6-19T5:9:13Z</time></trkpt>
<trkpt lat="46.151143" lon="7.568214"><ele></ele><time>2014-6-19T5:9:16Z</time></trkpt>
<trkpt lat="46.151026" lon="7.568511"><ele></ele><time>2014-6-19T5:9:19Z</time></trkpt>
<trkpt lat="46.151764" lon="7.568578"><ele></ele><time>2014-6-19T5:9:22Z</time></trkpt>
<trkpt lat="46.152034" lon="7.568371"><ele></ele><time>2014-6-19T5:9:25Z</time></trkpt>
<trkpt lat="46.152565" lon="7.568373"><ele></ele><time>2014-6-19T5:9:28Z</time></trkpt>
<trkpt lat="46.152879" lon="7.568373"><ele></ele><time>2014-6-19T5:9:31Z</time></trkpt>
<trkpt lat="46.153203" lon="7.568335"><ele></ele><time>2014-6-19T5:9:34Z</time></trkpt>
<trkpt lat="46.153455" lon="7.568129"><ele></ele><time>2014-6-19T5:9:37Z</time></trkpt>
<trkpt lat="46.153698" lon="7.568013"><ele></ele><time>2014-6-19T5:9:40Z</time></trkpt>
<trkpt lat="46.153851" lon="7.567923"><ele></ele><time>2014-6-19T5:9:43Z</time></trkpt>
<trkpt lat="46.154094" lon="7.567871"><ele></ele><time>2014-6-19T5:9:46Z</time></trkpt>
<trkpt lat="46.154193" lon="7.567846"><ele></ele><time>2014-6-19T5:9:49Z</time></trkpt>
<trkpt lat="46.154320" lon="7.567626"><ele></ele><time>2014-6-19T5:9:52Z</time></trkpt>
<trkpt lat="46.154752" lon="7.567316"><ele></ele><time>2014-6-19T5:9:55Z</time></trkpt>
<trkpt lat="46.155040" lon="7.567071"><ele></ele><time>2014-6-19T5:9:58Z</time></trkpt>
<trkpt lat="46.154977" lon="7.566747"><ele></ele><time>2014-6-19T5:10:1Z</time></trkpt>
<trkpt lat="46.155274" lon="7.566347"><ele></ele><time>2014-6-19T5:10:4Z</time></trkpt>
<trkpt lat="46.155599" lon="7.565739"><ele></ele><time>2014-6-19T5:10:7Z</time></trkpt>
<trkpt lat="46.155851" lon="7.565351"><ele></ele><time>2014-6-19T5:10:10Z</time></trkpt>
<trkpt lat="46.156068" lon="7.565054"><ele></ele><time>2014-6-19T5:10:13Z</time></trkpt>
<trkpt lat="46.156293" lon="7.564718"><ele></ele><time>2014-6-19T5:10:16Z</time></trkpt>
<trkpt lat="46.156635" lon="7.564835"><ele></ele><time>2014-6-19T5:10:19Z</time></trkpt>
<trkpt lat="46.158976" lon="7.562653"><ele></ele><time>2014-6-19T5:10:22Z</time></trkpt>
<trkpt lat="46.159291" lon="7.562304"><ele></ele><time>2014-6-19T5:10:25Z</time></trkpt>
<trkpt lat="46.159489" lon="7.562188"><ele></ele><time>2014-6-19T5:10:28Z</time></trkpt>
<trkpt lat="46.159534" lon="7.562395"><ele></ele><time>2014-6-19T5:10:31Z</time></trkpt>
<trkpt lat="46.159299" lon="7.562757"><ele></ele><time>2014-6-19T5:10:34Z</time></trkpt>
<trkpt lat="46.159326" lon="7.562990"><ele></ele><time>2014-6-19T5:10:37Z</time></trkpt>
<trkpt lat="46.159722" lon="7.562655"><ele></ele><time>2014-6-19T5:10:40Z</time></trkpt>
<trkpt lat="46.159839" lon="7.562759"><ele></ele><time>2014-6-19T5:10:43Z</time></trkpt>
<trkpt lat="46.159578" lon="7.563315"><ele></ele><time>2014-6-19T5:10:46Z</time></trkpt>
<trkpt lat="46.159623" lon="7.563392"><ele></ele><time>2014-6-19T5:10:49Z</time></trkpt>
<trkpt lat="46.159866" lon="7.563108"><ele></ele><time>2014-6-19T5:10:52Z</time></trkpt>
<trkpt lat="46.160046" lon="7.563160"><ele></ele><time>2014-6-19T5:10:55Z</time></trkpt>
<trkpt lat="46.159964" lon="7.563419"><ele></ele><time>2014-6-19T5:10:58Z</time></trkpt>
<trkpt lat="46.159712" lon="7.563910"><ele></ele><time>2014-6-19T5:11:1Z</time></trkpt>
<trkpt lat="46.159919" lon="7.563911"><ele></ele><time>2014-6-19T5:11:4Z</time></trkpt>
<trkpt lat="46.160378" lon="7.563731"><ele></ele><time>2014-6-19T5:11:7Z</time></trkpt>
<trkpt lat="46.159999" lon="7.564701"><ele></ele><time>2014-6-19T5:11:10Z</time></trkpt>
<trkpt lat="46.159836" lon="7.565309"><ele></ele><time>2014-6-19T5:11:13Z</time></trkpt>
<trkpt lat="46.159674" lon="7.565723"><ele></ele><time>2014-6-19T5:11:16Z</time></trkpt>
<trkpt lat="46.159881" lon="7.565956"><ele></ele><time>2014-6-19T5:11:19Z</time></trkpt>
<trkpt lat="46.160240" lon="7.566099"><ele></ele><time>2014-6-19T5:11:22Z</time></trkpt>
<trkpt lat="46.161239" lon="7.566218"><ele></ele><time>2014-6-19T5:11:25Z</time></trkpt>
<trkpt lat="46.162210" lon="7.566350"><ele></ele><time>2014-6-19T5:11:28Z</time></trkpt>
<trkpt lat="46.162525" lon="7.566493"><ele></ele><time>2014-6-19T5:11:31Z</time></trkpt>
<trkpt lat="46.162893" lon="7.566649"><ele></ele><time>2014-6-19T5:11:34Z</time></trkpt>
<trkpt lat="46.163451" lon="7.566586"><ele></ele><time>2014-6-19T5:11:37Z</time></trkpt>
<trkpt lat="46.163775" lon="7.566522"><ele></ele><time>2014-6-19T5:11:40Z</time></trkpt>
<trkpt lat="46.164972" lon="7.566447"><ele></ele><time>2014-6-19T5:11:43Z</time></trkpt>
<trkpt lat="46.165430" lon="7.566772"><ele></ele><time>2014-6-19T5:11:46Z</time></trkpt>
<trkpt lat="46.165655" lon="7.566734"><ele></ele><time>2014-6-19T5:11:49Z</time></trkpt>
<trkpt lat="46.165925" lon="7.566954"><ele></ele><time>2014-6-19T5:11:52Z</time></trkpt>
<trkpt lat="46.166725" lon="7.567280"><ele></ele><time>2014-6-19T5:11:55Z</time></trkpt>
<trkpt lat="46.167623" lon="7.568318"><ele></ele><time>2014-6-19T5:11:58Z</time></trkpt>
<trkpt lat="46.168738" lon="7.569214"><ele></ele><time>2014-6-19T5:12:1Z</time></trkpt>
<trkpt lat="46.169259" lon="7.569396"><ele></ele><time>2014-6-19T5:12:4Z</time></trkpt>
<trkpt lat="46.169691" lon="7.569384"><ele></ele><time>2014-6-19T5:12:7Z</time></trkpt>
<trkpt lat="46.171677" lon="7.571189"><ele></ele><time>2014-6-19T5:12:10Z</time></trkpt>
</trkseg></trk></gpx>